<?xml version="1.0" encoding="UTF-8" standalone="no" ?>
<gpx xmlns="http://www.topografix.com/GPX/1/1" xmlns:xsi="http://www.w3.org/2001/XMLSchema-instance" xsi:schemaLocation="http://www.topografix.com/GPX/1/1 http://www.topografix.com/GPX/1/1/gpx.xsd" version="1.1" creator="VisuGPX - https://www.visugpx.com">
  <metadata>
    <name>Marais du Douhet</name>
    <desc><![CDATA[Boucle au départ du port du Douhet à Saint Pierre d'Oléron.]]></desc>
  </metadata>
  <trk>
    <name><![CDATA[30-MAI-17 11:53:47]]></name>
    <trkseg>
      <trkpt lat="45.99998" lon="-1.32273">
        <ele>-8.51</ele>
        <time>2017-05-30T07:33:14Z</time>
      </trkpt>
      <trkpt lat="45.99998" lon="-1.3226">
        <ele>-6.59</ele>
        <time>2017-05-30T07:33:28Z</time>
      </trkpt>
      <trkpt lat="45.99998" lon="-1.32258">
        <ele>-6.59</ele>
        <time>2017-05-30T07:33:30Z</time>
      </trkpt>
      <trkpt lat="45.99994" lon="-1.32231">
        <ele>-0.34</ele>
        <time>2017-05-30T07:33:48Z</time>
      </trkpt>
      <trkpt lat="45.99985" lon="-1.32214">
        <ele>1.1</ele>
        <time>2017-05-30T07:34:01Z</time>
      </trkpt>
      <trkpt lat="45.99975" lon="-1.322">
        <ele>2.54</ele>
        <time>2017-05-30T07:34:13Z</time>
      </trkpt>
      <trkpt lat="45.99971" lon="-1.32177">
        <ele>3.5</ele>
        <time>2017-05-30T07:34:28Z</time>
      </trkpt>
      <trkpt lat="45.99971" lon="-1.32175">
        <ele>3.02</ele>
        <time>2017-05-30T07:34:29Z</time>
      </trkpt>
      <trkpt lat="45.99971" lon="-1.32172">
        <ele>3.02</ele>
        <time>2017-05-30T07:34:31Z</time>
      </trkpt>
      <trkpt lat="45.99972" lon="-1.32164">
        <ele>3.5</ele>
        <time>2017-05-30T07:34:36Z</time>
      </trkpt>
      <trkpt lat="45.99964" lon="-1.3214">
        <ele>5.42</ele>
        <time>2017-05-30T07:34:52Z</time>
      </trkpt>
      <trkpt lat="45.99962" lon="-1.32135">
        <ele>6.39</ele>
        <time>2017-05-30T07:34:55Z</time>
      </trkpt>
      <trkpt lat="45.9995" lon="-1.32117">
        <ele>7.83</ele>
        <time>2017-05-30T07:35:10Z</time>
      </trkpt>
      <trkpt lat="45.99943" lon="-1.32098">
        <ele>8.79</ele>
        <time>2017-05-30T07:35:22Z</time>
      </trkpt>
      <trkpt lat="45.99944" lon="-1.32092">
        <ele>8.79</ele>
        <time>2017-05-30T07:35:26Z</time>
      </trkpt>
      <trkpt lat="45.99927" lon="-1.32083">
        <ele>6.39</ele>
        <time>2017-05-30T07:35:41Z</time>
      </trkpt>
      <trkpt lat="45.99926" lon="-1.32084">
        <ele>5.91</ele>
        <time>2017-05-30T07:35:42Z</time>
      </trkpt>
      <trkpt lat="45.99905" lon="-1.321">
        <ele>6.87</ele>
        <time>2017-05-30T07:36:00Z</time>
      </trkpt>
      <trkpt lat="45.99886" lon="-1.32111">
        <ele>8.31</ele>
        <time>2017-05-30T07:36:16Z</time>
      </trkpt>
      <trkpt lat="45.99862" lon="-1.32117">
        <ele>10.71</ele>
        <time>2017-05-30T07:36:35Z</time>
      </trkpt>
      <trkpt lat="45.9984" lon="-1.32116">
        <ele>11.19</ele>
        <time>2017-05-30T07:36:52Z</time>
      </trkpt>
      <trkpt lat="45.9982" lon="-1.32111">
        <ele>10.71</ele>
        <time>2017-05-30T07:37:07Z</time>
      </trkpt>
      <trkpt lat="45.998" lon="-1.32101">
        <ele>11.67</ele>
        <time>2017-05-30T07:37:24Z</time>
      </trkpt>
      <trkpt lat="45.9978" lon="-1.32086">
        <ele>11.67</ele>
        <time>2017-05-30T07:37:41Z</time>
      </trkpt>
      <trkpt lat="45.99777" lon="-1.32083">
        <ele>11.19</ele>
        <time>2017-05-30T07:37:44Z</time>
      </trkpt>
      <trkpt lat="45.9976" lon="-1.32068">
        <ele>8.79</ele>
        <time>2017-05-30T07:38:00Z</time>
      </trkpt>
      <trkpt lat="45.99748" lon="-1.32052">
        <ele>8.79</ele>
        <time>2017-05-30T07:38:13Z</time>
      </trkpt>
      <trkpt lat="45.99733" lon="-1.32034">
        <ele>8.79</ele>
        <time>2017-05-30T07:38:27Z</time>
      </trkpt>
      <trkpt lat="45.99718" lon="-1.32013">
        <ele>7.35</ele>
        <time>2017-05-30T07:38:43Z</time>
      </trkpt>
      <trkpt lat="45.99708" lon="-1.31995">
        <ele>6.87</ele>
        <time>2017-05-30T07:38:54Z</time>
      </trkpt>
      <trkpt lat="45.99697" lon="-1.31975">
        <ele>6.87</ele>
        <time>2017-05-30T07:39:07Z</time>
      </trkpt>
      <trkpt lat="45.9969" lon="-1.31967">
        <ele>7.83</ele>
        <time>2017-05-30T07:39:15Z</time>
      </trkpt>
      <trkpt lat="45.99676" lon="-1.31943">
        <ele>6.87</ele>
        <time>2017-05-30T07:39:31Z</time>
      </trkpt>
      <trkpt lat="45.99664" lon="-1.31918">
        <ele>7.35</ele>
        <time>2017-05-30T07:39:47Z</time>
      </trkpt>
      <trkpt lat="45.99657" lon="-1.31898">
        <ele>6.87</ele>
        <time>2017-05-30T07:39:58Z</time>
      </trkpt>
      <trkpt lat="45.99656" lon="-1.31896">
        <ele>6.39</ele>
        <time>2017-05-30T07:40:00Z</time>
      </trkpt>
      <trkpt lat="45.9964" lon="-1.31862">
        <ele>4.94</ele>
        <time>2017-05-30T07:40:20Z</time>
      </trkpt>
      <trkpt lat="45.99635" lon="-1.31856">
        <ele>4.94</ele>
        <time>2017-05-30T07:40:26Z</time>
      </trkpt>
      <trkpt lat="45.99625" lon="-1.31833">
        <ele>4.46</ele>
        <time>2017-05-30T07:40:46Z</time>
      </trkpt>
      <trkpt lat="45.9962" lon="-1.31822">
        <ele>5.42</ele>
        <time>2017-05-30T07:40:52Z</time>
      </trkpt>
      <trkpt lat="45.99616" lon="-1.31806">
        <ele>5.42</ele>
        <time>2017-05-30T07:40:57Z</time>
      </trkpt>
      <trkpt lat="45.99613" lon="-1.31801">
        <ele>5.42</ele>
        <time>2017-05-30T07:41:10Z</time>
      </trkpt>
      <trkpt lat="45.99608" lon="-1.31775">
        <ele>4.94</ele>
        <time>2017-05-30T07:41:26Z</time>
      </trkpt>
      <trkpt lat="45.99601" lon="-1.3174">
        <ele>4.94</ele>
        <time>2017-05-30T07:41:45Z</time>
      </trkpt>
      <trkpt lat="45.99594" lon="-1.31712">
        <ele>4.46</ele>
        <time>2017-05-30T07:42:01Z</time>
      </trkpt>
      <trkpt lat="45.99588" lon="-1.31681">
        <ele>3.02</ele>
        <time>2017-05-30T07:42:17Z</time>
      </trkpt>
      <trkpt lat="45.99579" lon="-1.31647">
        <ele>2.06</ele>
        <time>2017-05-30T07:42:35Z</time>
      </trkpt>
      <trkpt lat="45.99561" lon="-1.31623">
        <ele>0.14</ele>
        <time>2017-05-30T07:42:52Z</time>
      </trkpt>
      <trkpt lat="45.99544" lon="-1.31606">
        <ele>0.62</ele>
        <time>2017-05-30T07:43:07Z</time>
      </trkpt>
      <trkpt lat="45.99527" lon="-1.31586">
        <ele>-1.3</ele>
        <time>2017-05-30T07:43:22Z</time>
      </trkpt>
      <trkpt lat="45.99509" lon="-1.31565">
        <ele>-2.75</ele>
        <time>2017-05-30T07:43:38Z</time>
      </trkpt>
      <trkpt lat="45.99505" lon="-1.3156">
        <ele>-3.23</ele>
        <time>2017-05-30T07:43:42Z</time>
      </trkpt>
      <trkpt lat="45.99493" lon="-1.31543">
        <ele>-3.71</ele>
        <time>2017-05-30T07:43:56Z</time>
      </trkpt>
      <trkpt lat="45.99478" lon="-1.31522">
        <ele>-1.79</ele>
        <time>2017-05-30T07:44:14Z</time>
      </trkpt>
      <trkpt lat="45.99465" lon="-1.31505">
        <ele>-0.34</ele>
        <time>2017-05-30T07:44:29Z</time>
      </trkpt>
      <trkpt lat="45.99449" lon="-1.31488">
        <ele>1.58</ele>
        <time>2017-05-30T07:44:46Z</time>
      </trkpt>
      <trkpt lat="45.99435" lon="-1.31475">
        <ele>2.54</ele>
        <time>2017-05-30T07:45:00Z</time>
      </trkpt>
      <trkpt lat="45.99427" lon="-1.31464">
        <ele>3.02</ele>
        <time>2017-05-30T07:45:10Z</time>
      </trkpt>
      <trkpt lat="45.99418" lon="-1.31451">
        <ele>3.02</ele>
        <time>2017-05-30T07:45:22Z</time>
      </trkpt>
      <trkpt lat="45.99405" lon="-1.31434">
        <ele>3.5</ele>
        <time>2017-05-30T07:45:37Z</time>
      </trkpt>
      <trkpt lat="45.99386" lon="-1.3141">
        <ele>3.5</ele>
        <time>2017-05-30T07:45:55Z</time>
      </trkpt>
      <trkpt lat="45.99371" lon="-1.31387">
        <ele>4.94</ele>
        <time>2017-05-30T07:46:12Z</time>
      </trkpt>
      <trkpt lat="45.99358" lon="-1.31364">
        <ele>6.39</ele>
        <time>2017-05-30T07:46:27Z</time>
      </trkpt>
      <trkpt lat="45.99346" lon="-1.31342">
        <ele>8.31</ele>
        <time>2017-05-30T07:46:42Z</time>
      </trkpt>
      <trkpt lat="45.99342" lon="-1.31335">
        <ele>7.83</ele>
        <time>2017-05-30T07:46:49Z</time>
      </trkpt>
      <trkpt lat="45.99328" lon="-1.31312">
        <ele>7.35</ele>
        <time>2017-05-30T07:47:06Z</time>
      </trkpt>
      <trkpt lat="45.99315" lon="-1.31298">
        <ele>6.87</ele>
        <time>2017-05-30T07:47:19Z</time>
      </trkpt>
      <trkpt lat="45.99296" lon="-1.31287">
        <ele>5.91</ele>
        <time>2017-05-30T07:47:35Z</time>
      </trkpt>
      <trkpt lat="45.99287" lon="-1.31282">
        <ele>7.35</ele>
        <time>2017-05-30T07:47:48Z</time>
      </trkpt>
      <trkpt lat="45.9929" lon="-1.31276">
        <ele>5.42</ele>
        <time>2017-05-30T07:48:01Z</time>
      </trkpt>
      <trkpt lat="45.9929" lon="-1.31273">
        <ele>4.46</ele>
        <time>2017-05-30T07:48:15Z</time>
      </trkpt>
      <trkpt lat="45.99291" lon="-1.31269">
        <ele>3.5</ele>
        <time>2017-05-30T07:48:30Z</time>
      </trkpt>
      <trkpt lat="45.9929" lon="-1.31268">
        <ele>3.98</ele>
        <time>2017-05-30T07:48:49Z</time>
      </trkpt>
      <trkpt lat="45.9929" lon="-1.31265">
        <ele>3.98</ele>
        <time>2017-05-30T07:49:04Z</time>
      </trkpt>
      <trkpt lat="45.99287" lon="-1.31258">
        <ele>4.46</ele>
        <time>2017-05-30T07:49:17Z</time>
      </trkpt>
      <trkpt lat="45.9929" lon="-1.3125">
        <ele>4.46</ele>
        <time>2017-05-30T07:49:29Z</time>
      </trkpt>
      <trkpt lat="45.9929" lon="-1.31249">
        <ele>3.98</ele>
        <time>2017-05-30T07:49:47Z</time>
      </trkpt>
      <trkpt lat="45.99291" lon="-1.31249">
        <ele>3.98</ele>
        <time>2017-05-30T07:50:12Z</time>
      </trkpt>
      <trkpt lat="45.99291" lon="-1.31249">
        <ele>4.46</ele>
        <time>2017-05-30T07:50:32Z</time>
      </trkpt>
      <trkpt lat="45.99291" lon="-1.31249">
        <ele>3.98</ele>
        <time>2017-05-30T07:51:00Z</time>
      </trkpt>
      <trkpt lat="45.99291" lon="-1.31248">
        <ele>3.98</ele>
        <time>2017-05-30T07:51:13Z</time>
      </trkpt>
      <trkpt lat="45.99291" lon="-1.31248">
        <ele>3.98</ele>
        <time>2017-05-30T07:51:28Z</time>
      </trkpt>
      <trkpt lat="45.9929" lon="-1.31248">
        <ele>4.46</ele>
        <time>2017-05-30T07:51:47Z</time>
      </trkpt>
      <trkpt lat="45.9929" lon="-1.31249">
        <ele>5.42</ele>
        <time>2017-05-30T07:52:06Z</time>
      </trkpt>
      <trkpt lat="45.9929" lon="-1.31249">
        <ele>4.46</ele>
        <time>2017-05-30T07:52:26Z</time>
      </trkpt>
      <trkpt lat="45.99287" lon="-1.31246">
        <ele>4.94</ele>
        <time>2017-05-30T07:52:39Z</time>
      </trkpt>
      <trkpt lat="45.99285" lon="-1.31244">
        <ele>5.42</ele>
        <time>2017-05-30T07:52:42Z</time>
      </trkpt>
      <trkpt lat="45.99273" lon="-1.31225">
        <ele>6.39</ele>
        <time>2017-05-30T07:52:57Z</time>
      </trkpt>
      <trkpt lat="45.99258" lon="-1.31209">
        <ele>6.39</ele>
        <time>2017-05-30T07:53:13Z</time>
      </trkpt>
      <trkpt lat="45.99246" lon="-1.31197">
        <ele>6.39</ele>
        <time>2017-05-30T07:53:28Z</time>
      </trkpt>
      <trkpt lat="45.99244" lon="-1.31196">
        <ele>6.87</ele>
        <time>2017-05-30T07:53:30Z</time>
      </trkpt>
      <trkpt lat="45.9923" lon="-1.31203">
        <ele>8.79</ele>
        <time>2017-05-30T07:53:43Z</time>
      </trkpt>
      <trkpt lat="45.99216" lon="-1.31217">
        <ele>7.83</ele>
        <time>2017-05-30T07:53:57Z</time>
      </trkpt>
      <trkpt lat="45.99208" lon="-1.31228">
        <ele>5.91</ele>
        <time>2017-05-30T07:54:06Z</time>
      </trkpt>
      <trkpt lat="45.99208" lon="-1.31233">
        <ele>4.94</ele>
        <time>2017-05-30T07:54:09Z</time>
      </trkpt>
      <trkpt lat="45.99205" lon="-1.31239">
        <ele>5.42</ele>
        <time>2017-05-30T07:54:13Z</time>
      </trkpt>
      <trkpt lat="45.99199" lon="-1.31247">
        <ele>6.87</ele>
        <time>2017-05-30T07:54:21Z</time>
      </trkpt>
      <trkpt lat="45.99189" lon="-1.31252">
        <ele>8.79</ele>
        <time>2017-05-30T07:54:33Z</time>
      </trkpt>
      <trkpt lat="45.99188" lon="-1.31256">
        <ele>8.79</ele>
        <time>2017-05-30T07:54:52Z</time>
      </trkpt>
      <trkpt lat="45.99187" lon="-1.31259">
        <ele>8.79</ele>
        <time>2017-05-30T07:55:09Z</time>
      </trkpt>
      <trkpt lat="45.99186" lon="-1.31258">
        <ele>8.79</ele>
        <time>2017-05-30T07:55:23Z</time>
      </trkpt>
      <trkpt lat="45.99183" lon="-1.31256">
        <ele>13.6</ele>
        <time>2017-05-30T07:55:35Z</time>
      </trkpt>
      <trkpt lat="45.99182" lon="-1.31255">
        <ele>14.56</ele>
        <time>2017-05-30T07:56:13Z</time>
      </trkpt>
      <trkpt lat="45.9918" lon="-1.31259">
        <ele>16.96</ele>
        <time>2017-05-30T07:56:27Z</time>
      </trkpt>
      <trkpt lat="45.99179" lon="-1.31265">
        <ele>15.52</ele>
        <time>2017-05-30T07:56:41Z</time>
      </trkpt>
      <trkpt lat="45.99179" lon="-1.31265">
        <ele>15.52</ele>
        <time>2017-05-30T07:57:04Z</time>
      </trkpt>
      <trkpt lat="45.99179" lon="-1.31262">
        <ele>14.08</ele>
        <time>2017-05-30T07:57:28Z</time>
      </trkpt>
      <trkpt lat="45.99179" lon="-1.3126">
        <ele>13.6</ele>
        <time>2017-05-30T07:57:58Z</time>
      </trkpt>
      <trkpt lat="45.99177" lon="-1.31256">
        <ele>13.12</ele>
        <time>2017-05-30T07:58:12Z</time>
      </trkpt>
      <trkpt lat="45.99175" lon="-1.31249">
        <ele>16.96</ele>
        <time>2017-05-30T07:58:21Z</time>
      </trkpt>
      <trkpt lat="45.99174" lon="-1.31246">
        <ele>17.44</ele>
        <time>2017-05-30T07:58:23Z</time>
      </trkpt>
      <trkpt lat="45.99162" lon="-1.31233">
        <ele>19.84</ele>
        <time>2017-05-30T07:58:36Z</time>
      </trkpt>
      <trkpt lat="45.99155" lon="-1.31225">
        <ele>23.69</ele>
        <time>2017-05-30T07:58:46Z</time>
      </trkpt>
      <trkpt lat="45.99139" lon="-1.31215">
        <ele>26.09</ele>
        <time>2017-05-30T07:58:56Z</time>
      </trkpt>
      <trkpt lat="45.99133" lon="-1.31213">
        <ele>27.53</ele>
        <time>2017-05-30T07:59:06Z</time>
      </trkpt>
      <trkpt lat="45.99128" lon="-1.31213">
        <ele>28.98</ele>
        <time>2017-05-30T07:59:11Z</time>
      </trkpt>
      <trkpt lat="45.99107" lon="-1.31209">
        <ele>29.94</ele>
        <time>2017-05-30T07:59:23Z</time>
      </trkpt>
      <trkpt lat="45.99101" lon="-1.31213">
        <ele>27.53</ele>
        <time>2017-05-30T07:59:26Z</time>
      </trkpt>
      <trkpt lat="45.99094" lon="-1.31214">
        <ele>26.57</ele>
        <time>2017-05-30T07:59:28Z</time>
      </trkpt>
      <trkpt lat="45.99082" lon="-1.31236">
        <ele>28.02</ele>
        <time>2017-05-30T07:59:42Z</time>
      </trkpt>
      <trkpt lat="45.99079" lon="-1.31253">
        <ele>21.29</ele>
        <time>2017-05-30T07:59:48Z</time>
      </trkpt>
      <trkpt lat="45.99078" lon="-1.31272">
        <ele>19.84</ele>
        <time>2017-05-30T07:59:59Z</time>
      </trkpt>
      <trkpt lat="45.99077" lon="-1.31275">
        <ele>19.36</ele>
        <time>2017-05-30T08:00:01Z</time>
      </trkpt>
      <trkpt lat="45.99079" lon="-1.31297">
        <ele>22.73</ele>
        <time>2017-05-30T08:00:14Z</time>
      </trkpt>
      <trkpt lat="45.9908" lon="-1.31306">
        <ele>25.61</ele>
        <time>2017-05-30T08:00:19Z</time>
      </trkpt>
      <trkpt lat="45.99088" lon="-1.31333">
        <ele>20.81</ele>
        <time>2017-05-30T08:00:33Z</time>
      </trkpt>
      <trkpt lat="45.99104" lon="-1.31356">
        <ele>18.4</ele>
        <time>2017-05-30T08:00:47Z</time>
      </trkpt>
      <trkpt lat="45.99105" lon="-1.31357">
        <ele>17.92</ele>
        <time>2017-05-30T08:00:48Z</time>
      </trkpt>
      <trkpt lat="45.99111" lon="-1.31365">
        <ele>18.4</ele>
        <time>2017-05-30T08:00:53Z</time>
      </trkpt>
      <trkpt lat="45.99126" lon="-1.31381">
        <ele>16.96</ele>
        <time>2017-05-30T08:01:04Z</time>
      </trkpt>
      <trkpt lat="45.99127" lon="-1.31386">
        <ele>16.48</ele>
        <time>2017-05-30T08:01:08Z</time>
      </trkpt>
      <trkpt lat="45.99131" lon="-1.31397">
        <ele>10.23</ele>
        <time>2017-05-30T08:01:19Z</time>
      </trkpt>
      <trkpt lat="45.99137" lon="-1.31404">
        <ele>9.27</ele>
        <time>2017-05-30T08:01:34Z</time>
      </trkpt>
      <trkpt lat="45.99139" lon="-1.31408">
        <ele>9.75</ele>
        <time>2017-05-30T08:01:43Z</time>
      </trkpt>
      <trkpt lat="45.99137" lon="-1.31413">
        <ele>9.75</ele>
        <time>2017-05-30T08:01:49Z</time>
      </trkpt>
      <trkpt lat="45.99135" lon="-1.31415">
        <ele>10.71</ele>
        <time>2017-05-30T08:01:51Z</time>
      </trkpt>
      <trkpt lat="45.99131" lon="-1.31439">
        <ele>11.67</ele>
        <time>2017-05-30T08:02:03Z</time>
      </trkpt>
      <trkpt lat="45.99131" lon="-1.31441">
        <ele>10.71</ele>
        <time>2017-05-30T08:02:04Z</time>
      </trkpt>
      <trkpt lat="45.99133" lon="-1.31451">
        <ele>8.31</ele>
        <time>2017-05-30T08:02:17Z</time>
      </trkpt>
      <trkpt lat="45.99133" lon="-1.31452">
        <ele>7.83</ele>
        <time>2017-05-30T08:02:31Z</time>
      </trkpt>
      <trkpt lat="45.99135" lon="-1.31454">
        <ele>7.35</ele>
        <time>2017-05-30T08:02:53Z</time>
      </trkpt>
      <trkpt lat="45.99135" lon="-1.31452">
        <ele>6.87</ele>
        <time>2017-05-30T08:03:10Z</time>
      </trkpt>
      <trkpt lat="45.99135" lon="-1.31452">
        <ele>6.87</ele>
        <time>2017-05-30T08:03:25Z</time>
      </trkpt>
      <trkpt lat="45.99135" lon="-1.31452">
        <ele>5.91</ele>
        <time>2017-05-30T08:03:36Z</time>
      </trkpt>
      <trkpt lat="45.99135" lon="-1.31453">
        <ele>5.91</ele>
        <time>2017-05-30T08:03:51Z</time>
      </trkpt>
      <trkpt lat="45.99135" lon="-1.31452">
        <ele>5.91</ele>
        <time>2017-05-30T08:04:05Z</time>
      </trkpt>
      <trkpt lat="45.99135" lon="-1.31452">
        <ele>5.91</ele>
        <time>2017-05-30T08:04:20Z</time>
      </trkpt>
      <trkpt lat="45.99136" lon="-1.31452">
        <ele>5.42</ele>
        <time>2017-05-30T08:04:39Z</time>
      </trkpt>
      <trkpt lat="45.99136" lon="-1.31451">
        <ele>4.94</ele>
        <time>2017-05-30T08:04:56Z</time>
      </trkpt>
      <trkpt lat="45.99132" lon="-1.31456">
        <ele>5.42</ele>
        <time>2017-05-30T08:05:09Z</time>
      </trkpt>
      <trkpt lat="45.99132" lon="-1.31456">
        <ele>5.42</ele>
        <time>2017-05-30T08:05:10Z</time>
      </trkpt>
      <trkpt lat="45.99131" lon="-1.31459">
        <ele>4.94</ele>
        <time>2017-05-30T08:05:21Z</time>
      </trkpt>
      <trkpt lat="45.99132" lon="-1.31459">
        <ele>4.94</ele>
        <time>2017-05-30T08:05:27Z</time>
      </trkpt>
      <trkpt lat="45.99124" lon="-1.31478">
        <ele>6.39</ele>
        <time>2017-05-30T08:05:38Z</time>
      </trkpt>
      <trkpt lat="45.99117" lon="-1.31499">
        <ele>9.75</ele>
        <time>2017-05-30T08:05:50Z</time>
      </trkpt>
      <trkpt lat="45.99114" lon="-1.31504">
        <ele>10.71</ele>
        <time>2017-05-30T08:05:54Z</time>
      </trkpt>
      <trkpt lat="45.99098" lon="-1.31529">
        <ele>13.12</ele>
        <time>2017-05-30T08:06:09Z</time>
      </trkpt>
      <trkpt lat="45.9908" lon="-1.31552">
        <ele>15.52</ele>
        <time>2017-05-30T08:06:24Z</time>
      </trkpt>
      <trkpt lat="45.9907" lon="-1.31575">
        <ele>13.6</ele>
        <time>2017-05-30T08:06:36Z</time>
      </trkpt>
      <trkpt lat="45.99064" lon="-1.31593">
        <ele>11.19</ele>
        <time>2017-05-30T08:06:45Z</time>
      </trkpt>
      <trkpt lat="45.99062" lon="-1.316">
        <ele>11.67</ele>
        <time>2017-05-30T08:06:49Z</time>
      </trkpt>
      <trkpt lat="45.9905" lon="-1.31622">
        <ele>12.15</ele>
        <time>2017-05-30T08:07:01Z</time>
      </trkpt>
      <trkpt lat="45.99046" lon="-1.31627">
        <ele>12.63</ele>
        <time>2017-05-30T08:07:05Z</time>
      </trkpt>
      <trkpt lat="45.99032" lon="-1.3165">
        <ele>10.71</ele>
        <time>2017-05-30T08:07:19Z</time>
      </trkpt>
      <trkpt lat="45.99016" lon="-1.31675">
        <ele>11.67</ele>
        <time>2017-05-30T08:07:34Z</time>
      </trkpt>
      <trkpt lat="45.99" lon="-1.31697">
        <ele>10.71</ele>
        <time>2017-05-30T08:07:48Z</time>
      </trkpt>
      <trkpt lat="45.98984" lon="-1.3172">
        <ele>14.08</ele>
        <time>2017-05-30T08:08:04Z</time>
      </trkpt>
      <trkpt lat="45.98978" lon="-1.31728">
        <ele>16</ele>
        <time>2017-05-30T08:08:10Z</time>
      </trkpt>
      <trkpt lat="45.98969" lon="-1.31737">
        <ele>17.44</ele>
        <time>2017-05-30T08:08:17Z</time>
      </trkpt>
      <trkpt lat="45.98957" lon="-1.31756">
        <ele>20.32</ele>
        <time>2017-05-30T08:08:28Z</time>
      </trkpt>
      <trkpt lat="45.98943" lon="-1.31774">
        <ele>27.53</ele>
        <time>2017-05-30T08:08:42Z</time>
      </trkpt>
      <trkpt lat="45.98921" lon="-1.31804">
        <ele>16.48</ele>
        <time>2017-05-30T08:08:56Z</time>
      </trkpt>
      <trkpt lat="45.98905" lon="-1.31825">
        <ele>10.23</ele>
        <time>2017-05-30T08:09:09Z</time>
      </trkpt>
      <trkpt lat="45.98886" lon="-1.3185">
        <ele>6.39</ele>
        <time>2017-05-30T08:09:25Z</time>
      </trkpt>
      <trkpt lat="45.98868" lon="-1.31874">
        <ele>2.06</ele>
        <time>2017-05-30T08:09:40Z</time>
      </trkpt>
      <trkpt lat="45.98855" lon="-1.31891">
        <ele>2.54</ele>
        <time>2017-05-30T08:09:51Z</time>
      </trkpt>
      <trkpt lat="45.98848" lon="-1.31918">
        <ele>3.98</ele>
        <time>2017-05-30T08:10:05Z</time>
      </trkpt>
      <trkpt lat="45.9885" lon="-1.31949">
        <ele>2.06</ele>
        <time>2017-05-30T08:10:19Z</time>
      </trkpt>
      <trkpt lat="45.98851" lon="-1.3198">
        <ele>-1.3</ele>
        <time>2017-05-30T08:10:34Z</time>
      </trkpt>
      <trkpt lat="45.98854" lon="-1.32013">
        <ele>-2.27</ele>
        <time>2017-05-30T08:10:49Z</time>
      </trkpt>
      <trkpt lat="45.98856" lon="-1.32041">
        <ele>0.14</ele>
        <time>2017-05-30T08:11:02Z</time>
      </trkpt>
      <trkpt lat="45.98859" lon="-1.32076">
        <ele>-0.34</ele>
        <time>2017-05-30T08:11:18Z</time>
      </trkpt>
      <trkpt lat="45.98872" lon="-1.32092">
        <ele>1.58</ele>
        <time>2017-05-30T08:11:31Z</time>
      </trkpt>
      <trkpt lat="45.98881" lon="-1.32091">
        <ele>3.02</ele>
        <time>2017-05-30T08:11:37Z</time>
      </trkpt>
      <trkpt lat="45.98888" lon="-1.32091">
        <ele>4.46</ele>
        <time>2017-05-30T08:11:42Z</time>
      </trkpt>
      <trkpt lat="45.98905" lon="-1.321">
        <ele>5.42</ele>
        <time>2017-05-30T08:11:54Z</time>
      </trkpt>
      <trkpt lat="45.98925" lon="-1.32116">
        <ele>4.94</ele>
        <time>2017-05-30T08:12:09Z</time>
      </trkpt>
      <trkpt lat="45.98946" lon="-1.32134">
        <ele>3.5</ele>
        <time>2017-05-30T08:12:24Z</time>
      </trkpt>
      <trkpt lat="45.98963" lon="-1.32148">
        <ele>3.5</ele>
        <time>2017-05-30T08:12:37Z</time>
      </trkpt>
      <trkpt lat="45.98977" lon="-1.32161">
        <ele>2.54</ele>
        <time>2017-05-30T08:12:49Z</time>
      </trkpt>
      <trkpt lat="45.98988" lon="-1.32156">
        <ele>3.02</ele>
        <time>2017-05-30T08:12:58Z</time>
      </trkpt>
      <trkpt lat="45.98992" lon="-1.32157">
        <ele>3.5</ele>
        <time>2017-05-30T08:13:02Z</time>
      </trkpt>
      <trkpt lat="45.99008" lon="-1.32183">
        <ele>4.46</ele>
        <time>2017-05-30T08:13:19Z</time>
      </trkpt>
      <trkpt lat="45.99022" lon="-1.32202">
        <ele>2.54</ele>
        <time>2017-05-30T08:13:32Z</time>
      </trkpt>
      <trkpt lat="45.99029" lon="-1.32214">
        <ele>2.06</ele>
        <time>2017-05-30T08:13:39Z</time>
      </trkpt>
      <trkpt lat="45.99042" lon="-1.32242">
        <ele>2.54</ele>
        <time>2017-05-30T08:13:55Z</time>
      </trkpt>
      <trkpt lat="45.99048" lon="-1.32255">
        <ele>3.02</ele>
        <time>2017-05-30T08:14:02Z</time>
      </trkpt>
      <trkpt lat="45.99055" lon="-1.32269">
        <ele>3.5</ele>
        <time>2017-05-30T08:14:10Z</time>
      </trkpt>
      <trkpt lat="45.99063" lon="-1.32288">
        <ele>3.02</ele>
        <time>2017-05-30T08:14:20Z</time>
      </trkpt>
      <trkpt lat="45.9907" lon="-1.32305">
        <ele>3.02</ele>
        <time>2017-05-30T08:14:29Z</time>
      </trkpt>
      <trkpt lat="45.99076" lon="-1.32339">
        <ele>2.54</ele>
        <time>2017-05-30T08:14:45Z</time>
      </trkpt>
      <trkpt lat="45.99075" lon="-1.32369">
        <ele>2.54</ele>
        <time>2017-05-30T08:14:59Z</time>
      </trkpt>
      <trkpt lat="45.99073" lon="-1.32402">
        <ele>1.58</ele>
        <time>2017-05-30T08:15:14Z</time>
      </trkpt>
      <trkpt lat="45.99071" lon="-1.32436">
        <ele>2.06</ele>
        <time>2017-05-30T08:15:28Z</time>
      </trkpt>
      <trkpt lat="45.99066" lon="-1.32482">
        <ele>0.62</ele>
        <time>2017-05-30T08:15:46Z</time>
      </trkpt>
      <trkpt lat="45.99056" lon="-1.32523">
        <ele>-0.82</ele>
        <time>2017-05-30T08:16:03Z</time>
      </trkpt>
      <trkpt lat="45.99049" lon="-1.32545">
        <ele>-0.34</ele>
        <time>2017-05-30T08:16:13Z</time>
      </trkpt>
      <trkpt lat="45.99044" lon="-1.32562">
        <ele>1.1</ele>
        <time>2017-05-30T08:16:22Z</time>
      </trkpt>
      <trkpt lat="45.9904" lon="-1.32574">
        <ele>1.58</ele>
        <time>2017-05-30T08:16:28Z</time>
      </trkpt>
      <trkpt lat="45.99038" lon="-1.32583">
        <ele>2.54</ele>
        <time>2017-05-30T08:16:33Z</time>
      </trkpt>
      <trkpt lat="45.99034" lon="-1.32598">
        <ele>3.02</ele>
        <time>2017-05-30T08:16:40Z</time>
      </trkpt>
      <trkpt lat="45.99032" lon="-1.32606">
        <ele>3.98</ele>
        <time>2017-05-30T08:16:44Z</time>
      </trkpt>
      <trkpt lat="45.99023" lon="-1.32639">
        <ele>3.02</ele>
        <time>2017-05-30T08:17:00Z</time>
      </trkpt>
      <trkpt lat="45.99014" lon="-1.32668">
        <ele>5.91</ele>
        <time>2017-05-30T08:17:15Z</time>
      </trkpt>
      <trkpt lat="45.9901" lon="-1.3268">
        <ele>7.35</ele>
        <time>2017-05-30T08:17:21Z</time>
      </trkpt>
      <trkpt lat="45.99008" lon="-1.32687">
        <ele>9.27</ele>
        <time>2017-05-30T08:17:25Z</time>
      </trkpt>
      <trkpt lat="45.99" lon="-1.32713">
        <ele>9.75</ele>
        <time>2017-05-30T08:17:38Z</time>
      </trkpt>
      <trkpt lat="45.9899" lon="-1.32744">
        <ele>4.46</ele>
        <time>2017-05-30T08:17:54Z</time>
      </trkpt>
      <trkpt lat="45.98977" lon="-1.32769">
        <ele>3.02</ele>
        <time>2017-05-30T08:18:08Z</time>
      </trkpt>
      <trkpt lat="45.9896" lon="-1.32786">
        <ele>3.02</ele>
        <time>2017-05-30T08:18:23Z</time>
      </trkpt>
      <trkpt lat="45.98956" lon="-1.32787">
        <ele>3.02</ele>
        <time>2017-05-30T08:18:27Z</time>
      </trkpt>
      <trkpt lat="45.98952" lon="-1.32803">
        <ele>4.46</ele>
        <time>2017-05-30T08:18:36Z</time>
      </trkpt>
      <trkpt lat="45.98956" lon="-1.32807">
        <ele>4.94</ele>
        <time>2017-05-30T08:18:48Z</time>
      </trkpt>
      <trkpt lat="45.98961" lon="-1.3281">
        <ele>5.42</ele>
        <time>2017-05-30T08:18:59Z</time>
      </trkpt>
      <trkpt lat="45.98982" lon="-1.32827">
        <ele>3.98</ele>
        <time>2017-05-30T08:19:16Z</time>
      </trkpt>
      <trkpt lat="45.99001" lon="-1.32848">
        <ele>3.5</ele>
        <time>2017-05-30T08:19:33Z</time>
      </trkpt>
      <trkpt lat="45.9902" lon="-1.32867">
        <ele>4.94</ele>
        <time>2017-05-30T08:19:48Z</time>
      </trkpt>
      <trkpt lat="45.99044" lon="-1.32892">
        <ele>3.98</ele>
        <time>2017-05-30T08:20:08Z</time>
      </trkpt>
      <trkpt lat="45.99067" lon="-1.32914">
        <ele>4.46</ele>
        <time>2017-05-30T08:20:26Z</time>
      </trkpt>
      <trkpt lat="45.99068" lon="-1.32916">
        <ele>4.46</ele>
        <time>2017-05-30T08:20:27Z</time>
      </trkpt>
      <trkpt lat="45.99084" lon="-1.32932">
        <ele>4.94</ele>
        <time>2017-05-30T08:20:40Z</time>
      </trkpt>
      <trkpt lat="45.99107" lon="-1.32956">
        <ele>4.46</ele>
        <time>2017-05-30T08:20:58Z</time>
      </trkpt>
      <trkpt lat="45.9913" lon="-1.32979">
        <ele>3.5</ele>
        <time>2017-05-30T08:21:16Z</time>
      </trkpt>
      <trkpt lat="45.99134" lon="-1.32983">
        <ele>3.5</ele>
        <time>2017-05-30T08:21:19Z</time>
      </trkpt>
      <trkpt lat="45.99156" lon="-1.33004">
        <ele>3.98</ele>
        <time>2017-05-30T08:21:36Z</time>
      </trkpt>
      <trkpt lat="45.99177" lon="-1.33026">
        <ele>4.46</ele>
        <time>2017-05-30T08:21:53Z</time>
      </trkpt>
      <trkpt lat="45.99199" lon="-1.33049">
        <ele>4.94</ele>
        <time>2017-05-30T08:22:11Z</time>
      </trkpt>
      <trkpt lat="45.99223" lon="-1.33073">
        <ele>4.94</ele>
        <time>2017-05-30T08:22:30Z</time>
      </trkpt>
      <trkpt lat="45.99245" lon="-1.33096">
        <ele>5.42</ele>
        <time>2017-05-30T08:22:48Z</time>
      </trkpt>
      <trkpt lat="45.99263" lon="-1.33115">
        <ele>3.98</ele>
        <time>2017-05-30T08:23:03Z</time>
      </trkpt>
      <trkpt lat="45.99268" lon="-1.33119">
        <ele>3.98</ele>
        <time>2017-05-30T08:23:07Z</time>
      </trkpt>
      <trkpt lat="45.99291" lon="-1.33143">
        <ele>3.98</ele>
        <time>2017-05-30T08:23:25Z</time>
      </trkpt>
      <trkpt lat="45.99311" lon="-1.33163">
        <ele>4.94</ele>
        <time>2017-05-30T08:23:42Z</time>
      </trkpt>
      <trkpt lat="45.99332" lon="-1.33185">
        <ele>3.98</ele>
        <time>2017-05-30T08:23:59Z</time>
      </trkpt>
      <trkpt lat="45.99352" lon="-1.33205">
        <ele>4.46</ele>
        <time>2017-05-30T08:24:14Z</time>
      </trkpt>
      <trkpt lat="45.99379" lon="-1.33232">
        <ele>5.42</ele>
        <time>2017-05-30T08:24:35Z</time>
      </trkpt>
      <trkpt lat="45.9938" lon="-1.33232">
        <ele>5.42</ele>
        <time>2017-05-30T08:24:36Z</time>
      </trkpt>
      <trkpt lat="45.99392" lon="-1.33245">
        <ele>5.42</ele>
        <time>2017-05-30T08:24:46Z</time>
      </trkpt>
      <trkpt lat="45.99415" lon="-1.3327">
        <ele>5.42</ele>
        <time>2017-05-30T08:25:05Z</time>
      </trkpt>
      <trkpt lat="45.99437" lon="-1.33293">
        <ele>6.39</ele>
        <time>2017-05-30T08:25:22Z</time>
      </trkpt>
      <trkpt lat="45.99464" lon="-1.33321">
        <ele>5.42</ele>
        <time>2017-05-30T08:25:43Z</time>
      </trkpt>
      <trkpt lat="45.9949" lon="-1.33347">
        <ele>6.39</ele>
        <time>2017-05-30T08:26:03Z</time>
      </trkpt>
      <trkpt lat="45.99513" lon="-1.33372">
        <ele>7.83</ele>
        <time>2017-05-30T08:26:21Z</time>
      </trkpt>
      <trkpt lat="45.9952" lon="-1.33379">
        <ele>6.87</ele>
        <time>2017-05-30T08:26:27Z</time>
      </trkpt>
      <trkpt lat="45.9954" lon="-1.33398">
        <ele>7.35</ele>
        <time>2017-05-30T08:26:42Z</time>
      </trkpt>
      <trkpt lat="45.99546" lon="-1.33403">
        <ele>7.83</ele>
        <time>2017-05-30T08:26:47Z</time>
      </trkpt>
      <trkpt lat="45.9955" lon="-1.33411">
        <ele>6.87</ele>
        <time>2017-05-30T08:26:52Z</time>
      </trkpt>
      <trkpt lat="45.99549" lon="-1.33422">
        <ele>6.87</ele>
        <time>2017-05-30T08:27:06Z</time>
      </trkpt>
      <trkpt lat="45.99549" lon="-1.33421">
        <ele>7.83</ele>
        <time>2017-05-30T08:27:24Z</time>
      </trkpt>
      <trkpt lat="45.99549" lon="-1.33422">
        <ele>7.35</ele>
        <time>2017-05-30T08:27:41Z</time>
      </trkpt>
      <trkpt lat="45.99549" lon="-1.33424">
        <ele>6.87</ele>
        <time>2017-05-30T08:28:00Z</time>
      </trkpt>
      <trkpt lat="45.99549" lon="-1.33424">
        <ele>6.87</ele>
        <time>2017-05-30T08:28:21Z</time>
      </trkpt>
      <trkpt lat="45.99549" lon="-1.33424">
        <ele>6.87</ele>
        <time>2017-05-30T08:28:39Z</time>
      </trkpt>
      <trkpt lat="45.99545" lon="-1.33434">
        <ele>6.87</ele>
        <time>2017-05-30T08:28:52Z</time>
      </trkpt>
      <trkpt lat="45.99553" lon="-1.33449">
        <ele>4.94</ele>
        <time>2017-05-30T08:29:06Z</time>
      </trkpt>
      <trkpt lat="45.99575" lon="-1.33473">
        <ele>5.42</ele>
        <time>2017-05-30T08:29:24Z</time>
      </trkpt>
      <trkpt lat="45.99587" lon="-1.33486">
        <ele>5.91</ele>
        <time>2017-05-30T08:29:35Z</time>
      </trkpt>
      <trkpt lat="45.99587" lon="-1.3351">
        <ele>4.46</ele>
        <time>2017-05-30T08:29:48Z</time>
      </trkpt>
      <trkpt lat="45.99583" lon="-1.33522">
        <ele>2.54</ele>
        <time>2017-05-30T08:29:58Z</time>
      </trkpt>
      <trkpt lat="45.99578" lon="-1.33527">
        <ele>3.02</ele>
        <time>2017-05-30T08:30:11Z</time>
      </trkpt>
      <trkpt lat="45.99578" lon="-1.33528">
        <ele>3.02</ele>
        <time>2017-05-30T08:30:26Z</time>
      </trkpt>
      <trkpt lat="45.99565" lon="-1.33534">
        <ele>3.5</ele>
        <time>2017-05-30T08:30:38Z</time>
      </trkpt>
      <trkpt lat="45.99564" lon="-1.33534">
        <ele>3.02</ele>
        <time>2017-05-30T08:30:54Z</time>
      </trkpt>
      <trkpt lat="45.99557" lon="-1.3354">
        <ele>3.5</ele>
        <time>2017-05-30T08:31:08Z</time>
      </trkpt>
      <trkpt lat="45.99546" lon="-1.3355">
        <ele>2.54</ele>
        <time>2017-05-30T08:31:16Z</time>
      </trkpt>
      <trkpt lat="45.99529" lon="-1.33571">
        <ele>3.98</ele>
        <time>2017-05-30T08:31:32Z</time>
      </trkpt>
      <trkpt lat="45.99518" lon="-1.33595">
        <ele>3.5</ele>
        <time>2017-05-30T08:31:46Z</time>
      </trkpt>
      <trkpt lat="45.99505" lon="-1.33617">
        <ele>3.98</ele>
        <time>2017-05-30T08:31:59Z</time>
      </trkpt>
      <trkpt lat="45.99495" lon="-1.33638">
        <ele>3.98</ele>
        <time>2017-05-30T08:32:12Z</time>
      </trkpt>
      <trkpt lat="45.99481" lon="-1.33667">
        <ele>2.54</ele>
        <time>2017-05-30T08:32:28Z</time>
      </trkpt>
      <trkpt lat="45.99469" lon="-1.33688">
        <ele>3.02</ele>
        <time>2017-05-30T08:32:41Z</time>
      </trkpt>
      <trkpt lat="45.99458" lon="-1.33709">
        <ele>4.94</ele>
        <time>2017-05-30T08:32:55Z</time>
      </trkpt>
      <trkpt lat="45.99452" lon="-1.3372">
        <ele>6.39</ele>
        <time>2017-05-30T08:33:01Z</time>
      </trkpt>
      <trkpt lat="45.99441" lon="-1.33746">
        <ele>4.46</ele>
        <time>2017-05-30T08:33:15Z</time>
      </trkpt>
      <trkpt lat="45.99432" lon="-1.33764">
        <ele>3.98</ele>
        <time>2017-05-30T08:33:26Z</time>
      </trkpt>
      <trkpt lat="45.9942" lon="-1.33785">
        <ele>3.02</ele>
        <time>2017-05-30T08:33:40Z</time>
      </trkpt>
      <trkpt lat="45.99406" lon="-1.33813">
        <ele>3.5</ele>
        <time>2017-05-30T08:33:57Z</time>
      </trkpt>
      <trkpt lat="45.99392" lon="-1.33839">
        <ele>2.06</ele>
        <time>2017-05-30T08:34:14Z</time>
      </trkpt>
      <trkpt lat="45.99379" lon="-1.33865">
        <ele>1.58</ele>
        <time>2017-05-30T08:34:31Z</time>
      </trkpt>
      <trkpt lat="45.99373" lon="-1.33874">
        <ele>2.06</ele>
        <time>2017-05-30T08:34:38Z</time>
      </trkpt>
      <trkpt lat="45.99361" lon="-1.33897">
        <ele>1.1</ele>
        <time>2017-05-30T08:34:53Z</time>
      </trkpt>
      <trkpt lat="45.9936" lon="-1.33899">
        <ele>1.1</ele>
        <time>2017-05-30T08:34:54Z</time>
      </trkpt>
      <trkpt lat="45.99355" lon="-1.33909">
        <ele>0.62</ele>
        <time>2017-05-30T08:35:00Z</time>
      </trkpt>
      <trkpt lat="45.99342" lon="-1.33935">
        <ele>-0.34</ele>
        <time>2017-05-30T08:35:16Z</time>
      </trkpt>
      <trkpt lat="45.9933" lon="-1.3396">
        <ele>1.58</ele>
        <time>2017-05-30T08:35:30Z</time>
      </trkpt>
      <trkpt lat="45.99328" lon="-1.33967">
        <ele>3.5</ele>
        <time>2017-05-30T08:35:34Z</time>
      </trkpt>
      <trkpt lat="45.99314" lon="-1.33998">
        <ele>2.54</ele>
        <time>2017-05-30T08:35:51Z</time>
      </trkpt>
      <trkpt lat="45.99301" lon="-1.34025">
        <ele>1.58</ele>
        <time>2017-05-30T08:36:07Z</time>
      </trkpt>
      <trkpt lat="45.99289" lon="-1.34051">
        <ele>0.62</ele>
        <time>2017-05-30T08:36:22Z</time>
      </trkpt>
      <trkpt lat="45.99275" lon="-1.34077">
        <ele>0.62</ele>
        <time>2017-05-30T08:36:38Z</time>
      </trkpt>
      <trkpt lat="45.99265" lon="-1.341">
        <ele>0.14</ele>
        <time>2017-05-30T08:36:52Z</time>
      </trkpt>
      <trkpt lat="45.99256" lon="-1.34125">
        <ele>2.54</ele>
        <time>2017-05-30T08:37:07Z</time>
      </trkpt>
      <trkpt lat="45.99262" lon="-1.34134">
        <ele>3.5</ele>
        <time>2017-05-30T08:37:14Z</time>
      </trkpt>
      <trkpt lat="45.99266" lon="-1.34138">
        <ele>3.98</ele>
        <time>2017-05-30T08:37:18Z</time>
      </trkpt>
      <trkpt lat="45.99272" lon="-1.34147">
        <ele>3.98</ele>
        <time>2017-05-30T08:37:24Z</time>
      </trkpt>
      <trkpt lat="45.99278" lon="-1.34153">
        <ele>4.94</ele>
        <time>2017-05-30T08:37:29Z</time>
      </trkpt>
      <trkpt lat="45.99285" lon="-1.34165">
        <ele>5.91</ele>
        <time>2017-05-30T08:37:37Z</time>
      </trkpt>
      <trkpt lat="45.99302" lon="-1.34183">
        <ele>4.46</ele>
        <time>2017-05-30T08:37:52Z</time>
      </trkpt>
      <trkpt lat="45.99305" lon="-1.34186">
        <ele>4.94</ele>
        <time>2017-05-30T08:37:57Z</time>
      </trkpt>
      <trkpt lat="45.99316" lon="-1.34203">
        <ele>6.39</ele>
        <time>2017-05-30T08:38:09Z</time>
      </trkpt>
      <trkpt lat="45.99316" lon="-1.34203">
        <ele>6.87</ele>
        <time>2017-05-30T08:38:10Z</time>
      </trkpt>
      <trkpt lat="45.99318" lon="-1.34207">
        <ele>8.79</ele>
        <time>2017-05-30T08:38:13Z</time>
      </trkpt>
      <trkpt lat="45.99337" lon="-1.34227">
        <ele>12.15</ele>
        <time>2017-05-30T08:38:28Z</time>
      </trkpt>
      <trkpt lat="45.99353" lon="-1.34246">
        <ele>12.15</ele>
        <time>2017-05-30T08:38:41Z</time>
      </trkpt>
      <trkpt lat="45.9936" lon="-1.34255">
        <ele>13.12</ele>
        <time>2017-05-30T08:38:46Z</time>
      </trkpt>
      <trkpt lat="45.99377" lon="-1.34274">
        <ele>10.23</ele>
        <time>2017-05-30T08:38:58Z</time>
      </trkpt>
      <trkpt lat="45.99393" lon="-1.34294">
        <ele>7.35</ele>
        <time>2017-05-30T08:39:11Z</time>
      </trkpt>
      <trkpt lat="45.99401" lon="-1.34306">
        <ele>6.39</ele>
        <time>2017-05-30T08:39:19Z</time>
      </trkpt>
      <trkpt lat="45.99407" lon="-1.34312">
        <ele>5.91</ele>
        <time>2017-05-30T08:39:24Z</time>
      </trkpt>
      <trkpt lat="45.99419" lon="-1.34327">
        <ele>7.35</ele>
        <time>2017-05-30T08:39:36Z</time>
      </trkpt>
      <trkpt lat="45.99431" lon="-1.34341">
        <ele>7.35</ele>
        <time>2017-05-30T08:39:47Z</time>
      </trkpt>
      <trkpt lat="45.99447" lon="-1.34361">
        <ele>10.23</ele>
        <time>2017-05-30T08:40:02Z</time>
      </trkpt>
      <trkpt lat="45.99459" lon="-1.34376">
        <ele>12.63</ele>
        <time>2017-05-30T08:40:14Z</time>
      </trkpt>
      <trkpt lat="45.99469" lon="-1.34388">
        <ele>11.19</ele>
        <time>2017-05-30T08:40:22Z</time>
      </trkpt>
      <trkpt lat="45.99476" lon="-1.34397">
        <ele>11.19</ele>
        <time>2017-05-30T08:40:28Z</time>
      </trkpt>
      <trkpt lat="45.99491" lon="-1.34416">
        <ele>8.31</ele>
        <time>2017-05-30T08:40:40Z</time>
      </trkpt>
      <trkpt lat="45.99511" lon="-1.34444">
        <ele>5.91</ele>
        <time>2017-05-30T08:40:56Z</time>
      </trkpt>
      <trkpt lat="45.99531" lon="-1.34471">
        <ele>5.42</ele>
        <time>2017-05-30T08:41:13Z</time>
      </trkpt>
      <trkpt lat="45.99546" lon="-1.34494">
        <ele>4.94</ele>
        <time>2017-05-30T08:41:27Z</time>
      </trkpt>
      <trkpt lat="45.9956" lon="-1.34513">
        <ele>3.98</ele>
        <time>2017-05-30T08:41:40Z</time>
      </trkpt>
      <trkpt lat="45.99576" lon="-1.34537">
        <ele>4.94</ele>
        <time>2017-05-30T08:41:55Z</time>
      </trkpt>
      <trkpt lat="45.99591" lon="-1.34559">
        <ele>7.35</ele>
        <time>2017-05-30T08:42:10Z</time>
      </trkpt>
      <trkpt lat="45.99607" lon="-1.34582">
        <ele>7.35</ele>
        <time>2017-05-30T08:42:25Z</time>
      </trkpt>
      <trkpt lat="45.99608" lon="-1.34583">
        <ele>7.35</ele>
        <time>2017-05-30T08:42:26Z</time>
      </trkpt>
      <trkpt lat="45.99613" lon="-1.34588">
        <ele>8.79</ele>
        <time>2017-05-30T08:42:31Z</time>
      </trkpt>
      <trkpt lat="45.99629" lon="-1.34607">
        <ele>12.63</ele>
        <time>2017-05-30T08:42:46Z</time>
      </trkpt>
      <trkpt lat="45.9964" lon="-1.3462">
        <ele>15.52</ele>
        <time>2017-05-30T08:42:57Z</time>
      </trkpt>
      <trkpt lat="45.99655" lon="-1.34646">
        <ele>18.4</ele>
        <time>2017-05-30T08:43:12Z</time>
      </trkpt>
      <trkpt lat="45.99665" lon="-1.34669">
        <ele>15.04</ele>
        <time>2017-05-30T08:43:24Z</time>
      </trkpt>
      <trkpt lat="45.99673" lon="-1.34687">
        <ele>14.08</ele>
        <time>2017-05-30T08:43:33Z</time>
      </trkpt>
      <trkpt lat="45.99676" lon="-1.34693">
        <ele>15.04</ele>
        <time>2017-05-30T08:43:37Z</time>
      </trkpt>
      <trkpt lat="45.99679" lon="-1.34705">
        <ele>16.96</ele>
        <time>2017-05-30T08:43:44Z</time>
      </trkpt>
      <trkpt lat="45.99685" lon="-1.34722">
        <ele>19.84</ele>
        <time>2017-05-30T08:43:54Z</time>
      </trkpt>
      <trkpt lat="45.99686" lon="-1.34726">
        <ele>20.32</ele>
        <time>2017-05-30T08:43:56Z</time>
      </trkpt>
      <trkpt lat="45.99694" lon="-1.34754">
        <ele>20.81</ele>
        <time>2017-05-30T08:44:09Z</time>
      </trkpt>
      <trkpt lat="45.99705" lon="-1.34796">
        <ele>15.04</ele>
        <time>2017-05-30T08:44:25Z</time>
      </trkpt>
      <trkpt lat="45.99712" lon="-1.34828">
        <ele>13.12</ele>
        <time>2017-05-30T08:44:38Z</time>
      </trkpt>
      <trkpt lat="45.99715" lon="-1.34863">
        <ele>9.27</ele>
        <time>2017-05-30T08:44:53Z</time>
      </trkpt>
      <trkpt lat="45.99715" lon="-1.34872">
        <ele>8.79</ele>
        <time>2017-05-30T08:44:57Z</time>
      </trkpt>
      <trkpt lat="45.99711" lon="-1.34905">
        <ele>7.35</ele>
        <time>2017-05-30T08:45:14Z</time>
      </trkpt>
      <trkpt lat="45.99713" lon="-1.34912">
        <ele>3.98</ele>
        <time>2017-05-30T08:45:31Z</time>
      </trkpt>
      <trkpt lat="45.99714" lon="-1.34914">
        <ele>3.5</ele>
        <time>2017-05-30T08:45:57Z</time>
      </trkpt>
      <trkpt lat="45.99715" lon="-1.34915">
        <ele>3.5</ele>
        <time>2017-05-30T08:46:13Z</time>
      </trkpt>
      <trkpt lat="45.99711" lon="-1.34918">
        <ele>3.98</ele>
        <time>2017-05-30T08:46:31Z</time>
      </trkpt>
      <trkpt lat="45.99711" lon="-1.34919">
        <ele>3.5</ele>
        <time>2017-05-30T08:46:52Z</time>
      </trkpt>
      <trkpt lat="45.99709" lon="-1.34924">
        <ele>5.42</ele>
        <time>2017-05-30T08:46:59Z</time>
      </trkpt>
      <trkpt lat="45.99702" lon="-1.34931">
        <ele>10.71</ele>
        <time>2017-05-30T08:47:06Z</time>
      </trkpt>
      <trkpt lat="45.99697" lon="-1.34934">
        <ele>14.56</ele>
        <time>2017-05-30T08:47:11Z</time>
      </trkpt>
      <trkpt lat="45.99691" lon="-1.34949">
        <ele>23.69</ele>
        <time>2017-05-30T08:47:22Z</time>
      </trkpt>
      <trkpt lat="45.9968" lon="-1.3498">
        <ele>30.42</ele>
        <time>2017-05-30T08:47:39Z</time>
      </trkpt>
      <trkpt lat="45.9968" lon="-1.34984">
        <ele>30.42</ele>
        <time>2017-05-30T08:47:41Z</time>
      </trkpt>
      <trkpt lat="45.99671" lon="-1.35013">
        <ele>29.46</ele>
        <time>2017-05-30T08:47:56Z</time>
      </trkpt>
      <trkpt lat="45.99666" lon="-1.35027">
        <ele>25.13</ele>
        <time>2017-05-30T08:48:08Z</time>
      </trkpt>
      <trkpt lat="45.99669" lon="-1.35041">
        <ele>10.71</ele>
        <time>2017-05-30T08:48:31Z</time>
      </trkpt>
      <trkpt lat="45.99676" lon="-1.35029">
        <ele>5.91</ele>
        <time>2017-05-30T08:48:46Z</time>
      </trkpt>
      <trkpt lat="45.99684" lon="-1.35013">
        <ele>7.83</ele>
        <time>2017-05-30T08:49:00Z</time>
      </trkpt>
      <trkpt lat="45.9969" lon="-1.35">
        <ele>7.83</ele>
        <time>2017-05-30T08:49:09Z</time>
      </trkpt>
      <trkpt lat="45.99696" lon="-1.3498">
        <ele>6.39</ele>
        <time>2017-05-30T08:49:23Z</time>
      </trkpt>
      <trkpt lat="45.99697" lon="-1.34975">
        <ele>5.91</ele>
        <time>2017-05-30T08:49:31Z</time>
      </trkpt>
      <trkpt lat="45.9971" lon="-1.34947">
        <ele>8.79</ele>
        <time>2017-05-30T08:49:48Z</time>
      </trkpt>
      <trkpt lat="45.99717" lon="-1.34924">
        <ele>9.27</ele>
        <time>2017-05-30T08:50:01Z</time>
      </trkpt>
      <trkpt lat="45.99722" lon="-1.34924">
        <ele>9.75</ele>
        <time>2017-05-30T08:50:07Z</time>
      </trkpt>
      <trkpt lat="45.99733" lon="-1.34929">
        <ele>6.87</ele>
        <time>2017-05-30T08:50:18Z</time>
      </trkpt>
      <trkpt lat="45.99756" lon="-1.34952">
        <ele>4.94</ele>
        <time>2017-05-30T08:50:36Z</time>
      </trkpt>
      <trkpt lat="45.99773" lon="-1.34971">
        <ele>3.5</ele>
        <time>2017-05-30T08:50:51Z</time>
      </trkpt>
      <trkpt lat="45.99796" lon="-1.3499">
        <ele>3.02</ele>
        <time>2017-05-30T08:51:07Z</time>
      </trkpt>
      <trkpt lat="45.99816" lon="-1.35011">
        <ele>1.58</ele>
        <time>2017-05-30T08:51:23Z</time>
      </trkpt>
      <trkpt lat="45.99835" lon="-1.35033">
        <ele>2.54</ele>
        <time>2017-05-30T08:51:39Z</time>
      </trkpt>
      <trkpt lat="45.99837" lon="-1.35034">
        <ele>2.06</ele>
        <time>2017-05-30T08:51:40Z</time>
      </trkpt>
      <trkpt lat="45.99847" lon="-1.35043">
        <ele>2.54</ele>
        <time>2017-05-30T08:51:48Z</time>
      </trkpt>
      <trkpt lat="45.9986" lon="-1.35054">
        <ele>2.06</ele>
        <time>2017-05-30T08:51:58Z</time>
      </trkpt>
      <trkpt lat="45.99885" lon="-1.35078">
        <ele>1.1</ele>
        <time>2017-05-30T08:52:18Z</time>
      </trkpt>
      <trkpt lat="45.99906" lon="-1.35101">
        <ele>1.1</ele>
        <time>2017-05-30T08:52:36Z</time>
      </trkpt>
      <trkpt lat="45.99923" lon="-1.35119">
        <ele>1.58</ele>
        <time>2017-05-30T08:52:51Z</time>
      </trkpt>
      <trkpt lat="45.99944" lon="-1.35142">
        <ele>0.62</ele>
        <time>2017-05-30T08:53:09Z</time>
      </trkpt>
      <trkpt lat="45.99963" lon="-1.3516">
        <ele>1.58</ele>
        <time>2017-05-30T08:53:24Z</time>
      </trkpt>
      <trkpt lat="45.99984" lon="-1.3518">
        <ele>2.06</ele>
        <time>2017-05-30T08:53:41Z</time>
      </trkpt>
      <trkpt lat="46.00009" lon="-1.35173">
        <ele>2.06</ele>
        <time>2017-05-30T08:53:57Z</time>
      </trkpt>
      <trkpt lat="46.00028" lon="-1.35163">
        <ele>3.98</ele>
        <time>2017-05-30T08:54:10Z</time>
      </trkpt>
      <trkpt lat="46.00046" lon="-1.35153">
        <ele>5.42</ele>
        <time>2017-05-30T08:54:24Z</time>
      </trkpt>
      <trkpt lat="46.00064" lon="-1.35141">
        <ele>5.91</ele>
        <time>2017-05-30T08:54:38Z</time>
      </trkpt>
      <trkpt lat="46.00065" lon="-1.3514">
        <ele>5.91</ele>
        <time>2017-05-30T08:54:40Z</time>
      </trkpt>
      <trkpt lat="46.0009" lon="-1.35124">
        <ele>5.91</ele>
        <time>2017-05-30T08:54:58Z</time>
      </trkpt>
      <trkpt lat="46.00115" lon="-1.35119">
        <ele>4.46</ele>
        <time>2017-05-30T08:55:14Z</time>
      </trkpt>
      <trkpt lat="46.00135" lon="-1.35134">
        <ele>3.5</ele>
        <time>2017-05-30T08:55:30Z</time>
      </trkpt>
      <trkpt lat="46.00142" lon="-1.35144">
        <ele>2.54</ele>
        <time>2017-05-30T08:55:43Z</time>
      </trkpt>
      <trkpt lat="46.00142" lon="-1.35144">
        <ele>2.54</ele>
        <time>2017-05-30T08:55:50Z</time>
      </trkpt>
      <trkpt lat="46.00141" lon="-1.35143">
        <ele>2.54</ele>
        <time>2017-05-30T08:55:52Z</time>
      </trkpt>
      <trkpt lat="46.00139" lon="-1.35139">
        <ele>2.54</ele>
        <time>2017-05-30T08:56:06Z</time>
      </trkpt>
      <trkpt lat="46.00139" lon="-1.35139">
        <ele>2.54</ele>
        <time>2017-05-30T08:56:22Z</time>
      </trkpt>
      <trkpt lat="46.00139" lon="-1.35138">
        <ele>3.02</ele>
        <time>2017-05-30T08:56:37Z</time>
      </trkpt>
      <trkpt lat="46.00139" lon="-1.35136">
        <ele>3.02</ele>
        <time>2017-05-30T08:56:45Z</time>
      </trkpt>
      <trkpt lat="46.00151" lon="-1.35111">
        <ele>3.02</ele>
        <time>2017-05-30T08:57:02Z</time>
      </trkpt>
      <trkpt lat="46.00162" lon="-1.35088">
        <ele>3.02</ele>
        <time>2017-05-30T08:57:16Z</time>
      </trkpt>
      <trkpt lat="46.00172" lon="-1.35067">
        <ele>5.42</ele>
        <time>2017-05-30T08:57:32Z</time>
      </trkpt>
      <trkpt lat="46.00182" lon="-1.3504">
        <ele>5.91</ele>
        <time>2017-05-30T08:57:47Z</time>
      </trkpt>
      <trkpt lat="46.00192" lon="-1.35007">
        <ele>5.91</ele>
        <time>2017-05-30T08:58:03Z</time>
      </trkpt>
      <trkpt lat="46.002" lon="-1.34989">
        <ele>4.94</ele>
        <time>2017-05-30T08:58:13Z</time>
      </trkpt>
      <trkpt lat="46.00208" lon="-1.34992">
        <ele>4.46</ele>
        <time>2017-05-30T08:58:21Z</time>
      </trkpt>
      <trkpt lat="46.00231" lon="-1.35011">
        <ele>1.58</ele>
        <time>2017-05-30T08:58:40Z</time>
      </trkpt>
      <trkpt lat="46.00232" lon="-1.35012">
        <ele>1.58</ele>
        <time>2017-05-30T08:58:41Z</time>
      </trkpt>
      <trkpt lat="46.0024" lon="-1.35008">
        <ele>0.62</ele>
        <time>2017-05-30T08:58:48Z</time>
      </trkpt>
      <trkpt lat="46.00242" lon="-1.35003">
        <ele>1.1</ele>
        <time>2017-05-30T08:58:51Z</time>
      </trkpt>
      <trkpt lat="46.00245" lon="-1.35">
        <ele>1.58</ele>
        <time>2017-05-30T08:58:54Z</time>
      </trkpt>
      <trkpt lat="46.00247" lon="-1.34997">
        <ele>1.1</ele>
        <time>2017-05-30T08:59:03Z</time>
      </trkpt>
      <trkpt lat="46.00267" lon="-1.35001">
        <ele>1.1</ele>
        <time>2017-05-30T08:59:19Z</time>
      </trkpt>
      <trkpt lat="46.00276" lon="-1.35002">
        <ele>-0.82</ele>
        <time>2017-05-30T08:59:25Z</time>
      </trkpt>
      <trkpt lat="46.00283" lon="-1.35002">
        <ele>-1.3</ele>
        <time>2017-05-30T08:59:30Z</time>
      </trkpt>
      <trkpt lat="46.00285" lon="-1.35003">
        <ele>-1.3</ele>
        <time>2017-05-30T08:59:32Z</time>
      </trkpt>
      <trkpt lat="46.00293" lon="-1.35004">
        <ele>-1.3</ele>
        <time>2017-05-30T08:59:40Z</time>
      </trkpt>
      <trkpt lat="46.00299" lon="-1.35005">
        <ele>-0.82</ele>
        <time>2017-05-30T08:59:50Z</time>
      </trkpt>
      <trkpt lat="46.00301" lon="-1.35007">
        <ele>-0.34</ele>
        <time>2017-05-30T08:59:52Z</time>
      </trkpt>
      <trkpt lat="46.00307" lon="-1.35008">
        <ele>-0.82</ele>
        <time>2017-05-30T09:00:00Z</time>
      </trkpt>
      <trkpt lat="46.00318" lon="-1.3501">
        <ele>-0.82</ele>
        <time>2017-05-30T09:00:08Z</time>
      </trkpt>
      <trkpt lat="46.0034" lon="-1.35015">
        <ele>-0.34</ele>
        <time>2017-05-30T09:00:23Z</time>
      </trkpt>
      <trkpt lat="46.00356" lon="-1.35012">
        <ele>-1.3</ele>
        <time>2017-05-30T09:00:36Z</time>
      </trkpt>
      <trkpt lat="46.00361" lon="-1.3501">
        <ele>-0.82</ele>
        <time>2017-05-30T09:00:40Z</time>
      </trkpt>
      <trkpt lat="46.0038" lon="-1.35007">
        <ele>0.14</ele>
        <time>2017-05-30T09:00:54Z</time>
      </trkpt>
      <trkpt lat="46.00382" lon="-1.35007">
        <ele>0.14</ele>
        <time>2017-05-30T09:00:55Z</time>
      </trkpt>
      <trkpt lat="46.00383" lon="-1.35005">
        <ele>0.14</ele>
        <time>2017-05-30T09:00:57Z</time>
      </trkpt>
      <trkpt lat="46.00392" lon="-1.35002">
        <ele>0.14</ele>
        <time>2017-05-30T09:01:04Z</time>
      </trkpt>
      <trkpt lat="46.00412" lon="-1.34993">
        <ele>0.62</ele>
        <time>2017-05-30T09:01:19Z</time>
      </trkpt>
      <trkpt lat="46.00434" lon="-1.34984">
        <ele>0.62</ele>
        <time>2017-05-30T09:01:35Z</time>
      </trkpt>
      <trkpt lat="46.00461" lon="-1.34974">
        <ele>0.14</ele>
        <time>2017-05-30T09:01:54Z</time>
      </trkpt>
      <trkpt lat="46.00483" lon="-1.34968">
        <ele>0.62</ele>
        <time>2017-05-30T09:02:10Z</time>
      </trkpt>
      <trkpt lat="46.00505" lon="-1.34963">
        <ele>1.1</ele>
        <time>2017-05-30T09:02:26Z</time>
      </trkpt>
      <trkpt lat="46.00524" lon="-1.34955">
        <ele>1.58</ele>
        <time>2017-05-30T09:02:41Z</time>
      </trkpt>
      <trkpt lat="46.00541" lon="-1.34946">
        <ele>1.1</ele>
        <time>2017-05-30T09:02:54Z</time>
      </trkpt>
      <trkpt lat="46.00562" lon="-1.34934">
        <ele>1.1</ele>
        <time>2017-05-30T09:03:10Z</time>
      </trkpt>
      <trkpt lat="46.00567" lon="-1.34931">
        <ele>0.62</ele>
        <time>2017-05-30T09:03:15Z</time>
      </trkpt>
      <trkpt lat="46.00571" lon="-1.34931">
        <ele>1.1</ele>
        <time>2017-05-30T09:03:18Z</time>
      </trkpt>
      <trkpt lat="46.00576" lon="-1.34928">
        <ele>0.62</ele>
        <time>2017-05-30T09:03:24Z</time>
      </trkpt>
      <trkpt lat="46.00583" lon="-1.3491">
        <ele>0.14</ele>
        <time>2017-05-30T09:03:37Z</time>
      </trkpt>
      <trkpt lat="46.006" lon="-1.34882">
        <ele>2.06</ele>
        <time>2017-05-30T09:03:55Z</time>
      </trkpt>
      <trkpt lat="46.00617" lon="-1.34855">
        <ele>3.02</ele>
        <time>2017-05-30T09:04:12Z</time>
      </trkpt>
      <trkpt lat="46.00629" lon="-1.34833">
        <ele>3.02</ele>
        <time>2017-05-30T09:04:25Z</time>
      </trkpt>
      <trkpt lat="46.00635" lon="-1.34827">
        <ele>3.02</ele>
        <time>2017-05-30T09:04:30Z</time>
      </trkpt>
      <trkpt lat="46.00636" lon="-1.34824">
        <ele>3.5</ele>
        <time>2017-05-30T09:04:32Z</time>
      </trkpt>
      <trkpt lat="46.00651" lon="-1.34796">
        <ele>2.54</ele>
        <time>2017-05-30T09:04:49Z</time>
      </trkpt>
      <trkpt lat="46.00665" lon="-1.34772">
        <ele>2.54</ele>
        <time>2017-05-30T09:05:04Z</time>
      </trkpt>
      <trkpt lat="46.00679" lon="-1.34748">
        <ele>3.02</ele>
        <time>2017-05-30T09:05:19Z</time>
      </trkpt>
      <trkpt lat="46.00695" lon="-1.34728">
        <ele>3.5</ele>
        <time>2017-05-30T09:05:33Z</time>
      </trkpt>
      <trkpt lat="46.00711" lon="-1.34703">
        <ele>3.98</ele>
        <time>2017-05-30T09:05:49Z</time>
      </trkpt>
      <trkpt lat="46.00726" lon="-1.3468">
        <ele>4.46</ele>
        <time>2017-05-30T09:06:04Z</time>
      </trkpt>
      <trkpt lat="46.00745" lon="-1.34654">
        <ele>5.91</ele>
        <time>2017-05-30T09:06:22Z</time>
      </trkpt>
      <trkpt lat="46.00745" lon="-1.34646">
        <ele>4.46</ele>
        <time>2017-05-30T09:06:36Z</time>
      </trkpt>
      <trkpt lat="46.00745" lon="-1.34645">
        <ele>3.02</ele>
        <time>2017-05-30T09:06:54Z</time>
      </trkpt>
      <trkpt lat="46.00744" lon="-1.34644">
        <ele>2.54</ele>
        <time>2017-05-30T09:07:18Z</time>
      </trkpt>
      <trkpt lat="46.00744" lon="-1.34644">
        <ele>2.54</ele>
        <time>2017-05-30T09:07:37Z</time>
      </trkpt>
      <trkpt lat="46.00744" lon="-1.34644">
        <ele>2.54</ele>
        <time>2017-05-30T09:08:03Z</time>
      </trkpt>
      <trkpt lat="46.00747" lon="-1.34647">
        <ele>1.58</ele>
        <time>2017-05-30T09:08:21Z</time>
      </trkpt>
      <trkpt lat="46.00752" lon="-1.34652">
        <ele>1.58</ele>
        <time>2017-05-30T09:08:28Z</time>
      </trkpt>
      <trkpt lat="46.00752" lon="-1.34654">
        <ele>1.58</ele>
        <time>2017-05-30T09:08:30Z</time>
      </trkpt>
      <trkpt lat="46.00762" lon="-1.34663">
        <ele>1.1</ele>
        <time>2017-05-30T09:08:43Z</time>
      </trkpt>
      <trkpt lat="46.00765" lon="-1.34642">
        <ele>1.1</ele>
        <time>2017-05-30T09:08:54Z</time>
      </trkpt>
      <trkpt lat="46.00757" lon="-1.34613">
        <ele>2.54</ele>
        <time>2017-05-30T09:09:09Z</time>
      </trkpt>
      <trkpt lat="46.00755" lon="-1.34589">
        <ele>0.62</ele>
        <time>2017-05-30T09:09:21Z</time>
      </trkpt>
      <trkpt lat="46.00753" lon="-1.3457">
        <ele>0.62</ele>
        <time>2017-05-30T09:09:33Z</time>
      </trkpt>
      <trkpt lat="46.00743" lon="-1.34544">
        <ele>1.58</ele>
        <time>2017-05-30T09:09:49Z</time>
      </trkpt>
      <trkpt lat="46.0073" lon="-1.34525">
        <ele>3.98</ele>
        <time>2017-05-30T09:10:04Z</time>
      </trkpt>
      <trkpt lat="46.00724" lon="-1.34515">
        <ele>4.94</ele>
        <time>2017-05-30T09:10:11Z</time>
      </trkpt>
      <trkpt lat="46.0071" lon="-1.34493">
        <ele>4.94</ele>
        <time>2017-05-30T09:10:27Z</time>
      </trkpt>
      <trkpt lat="46.0071" lon="-1.34493">
        <ele>4.94</ele>
        <time>2017-05-30T09:10:28Z</time>
      </trkpt>
      <trkpt lat="46.00725" lon="-1.34474">
        <ele>5.42</ele>
        <time>2017-05-30T09:10:45Z</time>
      </trkpt>
      <trkpt lat="46.00742" lon="-1.3445">
        <ele>6.39</ele>
        <time>2017-05-30T09:11:02Z</time>
      </trkpt>
      <trkpt lat="46.00746" lon="-1.34441">
        <ele>5.91</ele>
        <time>2017-05-30T09:11:15Z</time>
      </trkpt>
      <trkpt lat="46.00747" lon="-1.3444">
        <ele>5.42</ele>
        <time>2017-05-30T09:11:25Z</time>
      </trkpt>
      <trkpt lat="46.00759" lon="-1.34427">
        <ele>3.98</ele>
        <time>2017-05-30T09:11:39Z</time>
      </trkpt>
      <trkpt lat="46.00777" lon="-1.34409">
        <ele>4.46</ele>
        <time>2017-05-30T09:11:55Z</time>
      </trkpt>
      <trkpt lat="46.00787" lon="-1.34402">
        <ele>3.98</ele>
        <time>2017-05-30T09:12:07Z</time>
      </trkpt>
      <trkpt lat="46.00788" lon="-1.34402">
        <ele>3.98</ele>
        <time>2017-05-30T09:12:08Z</time>
      </trkpt>
      <trkpt lat="46.00802" lon="-1.34419">
        <ele>5.42</ele>
        <time>2017-05-30T09:12:23Z</time>
      </trkpt>
      <trkpt lat="46.00812" lon="-1.34433">
        <ele>4.94</ele>
        <time>2017-05-30T09:12:34Z</time>
      </trkpt>
      <trkpt lat="46.00816" lon="-1.34433">
        <ele>5.42</ele>
        <time>2017-05-30T09:12:37Z</time>
      </trkpt>
      <trkpt lat="46.00821" lon="-1.34433">
        <ele>4.94</ele>
        <time>2017-05-30T09:12:45Z</time>
      </trkpt>
      <trkpt lat="46.00821" lon="-1.34431">
        <ele>4.94</ele>
        <time>2017-05-30T09:12:47Z</time>
      </trkpt>
      <trkpt lat="46.00808" lon="-1.34409">
        <ele>3.5</ele>
        <time>2017-05-30T09:13:03Z</time>
      </trkpt>
      <trkpt lat="46.008" lon="-1.34403">
        <ele>3.5</ele>
        <time>2017-05-30T09:13:17Z</time>
      </trkpt>
      <trkpt lat="46.00792" lon="-1.34391">
        <ele>3.02</ele>
        <time>2017-05-30T09:13:28Z</time>
      </trkpt>
      <trkpt lat="46.00777" lon="-1.34372">
        <ele>1.1</ele>
        <time>2017-05-30T09:13:44Z</time>
      </trkpt>
      <trkpt lat="46.00756" lon="-1.34358">
        <ele>-0.34</ele>
        <time>2017-05-30T09:13:59Z</time>
      </trkpt>
      <trkpt lat="46.00736" lon="-1.3435">
        <ele>0.62</ele>
        <time>2017-05-30T09:14:13Z</time>
      </trkpt>
      <trkpt lat="46.00718" lon="-1.34335">
        <ele>-0.82</ele>
        <time>2017-05-30T09:14:28Z</time>
      </trkpt>
      <trkpt lat="46.00709" lon="-1.34305">
        <ele>0.62</ele>
        <time>2017-05-30T09:14:44Z</time>
      </trkpt>
      <trkpt lat="46.00712" lon="-1.34278">
        <ele>1.58</ele>
        <time>2017-05-30T09:14:58Z</time>
      </trkpt>
      <trkpt lat="46.00723" lon="-1.34248">
        <ele>3.02</ele>
        <time>2017-05-30T09:15:15Z</time>
      </trkpt>
      <trkpt lat="46.0073" lon="-1.34233">
        <ele>3.98</ele>
        <time>2017-05-30T09:15:24Z</time>
      </trkpt>
      <trkpt lat="46.00731" lon="-1.34219">
        <ele>4.46</ele>
        <time>2017-05-30T09:15:34Z</time>
      </trkpt>
      <trkpt lat="46.00723" lon="-1.34195">
        <ele>3.02</ele>
        <time>2017-05-30T09:15:50Z</time>
      </trkpt>
      <trkpt lat="46.00716" lon="-1.34188">
        <ele>2.54</ele>
        <time>2017-05-30T09:15:57Z</time>
      </trkpt>
      <trkpt lat="46.00703" lon="-1.34177">
        <ele>3.02</ele>
        <time>2017-05-30T09:16:11Z</time>
      </trkpt>
      <trkpt lat="46.00689" lon="-1.34173">
        <ele>3.98</ele>
        <time>2017-05-30T09:16:24Z</time>
      </trkpt>
      <trkpt lat="46.0067" lon="-1.34167">
        <ele>2.06</ele>
        <time>2017-05-30T09:16:39Z</time>
      </trkpt>
      <trkpt lat="46.00655" lon="-1.34154">
        <ele>3.02</ele>
        <time>2017-05-30T09:16:54Z</time>
      </trkpt>
      <trkpt lat="46.00653" lon="-1.34152">
        <ele>3.5</ele>
        <time>2017-05-30T09:16:57Z</time>
      </trkpt>
      <trkpt lat="46.00645" lon="-1.34137">
        <ele>7.83</ele>
        <time>2017-05-30T09:17:13Z</time>
      </trkpt>
      <trkpt lat="46.00641" lon="-1.34128">
        <ele>10.23</ele>
        <time>2017-05-30T09:17:25Z</time>
      </trkpt>
      <trkpt lat="46.00634" lon="-1.34124">
        <ele>8.79</ele>
        <time>2017-05-30T09:17:41Z</time>
      </trkpt>
      <trkpt lat="46.00629" lon="-1.3412">
        <ele>7.35</ele>
        <time>2017-05-30T09:18:00Z</time>
      </trkpt>
      <trkpt lat="46.00628" lon="-1.34119">
        <ele>6.87</ele>
        <time>2017-05-30T09:18:23Z</time>
      </trkpt>
      <trkpt lat="46.00628" lon="-1.34118">
        <ele>6.39</ele>
        <time>2017-05-30T09:18:47Z</time>
      </trkpt>
      <trkpt lat="46.00627" lon="-1.34117">
        <ele>5.91</ele>
        <time>2017-05-30T09:19:14Z</time>
      </trkpt>
      <trkpt lat="46.00628" lon="-1.34117">
        <ele>5.91</ele>
        <time>2017-05-30T09:19:36Z</time>
      </trkpt>
      <trkpt lat="46.00628" lon="-1.34111">
        <ele>5.91</ele>
        <time>2017-05-30T09:19:44Z</time>
      </trkpt>
      <trkpt lat="46.00628" lon="-1.34104">
        <ele>6.39</ele>
        <time>2017-05-30T09:19:48Z</time>
      </trkpt>
      <trkpt lat="46.00636" lon="-1.34085">
        <ele>5.91</ele>
        <time>2017-05-30T09:20:03Z</time>
      </trkpt>
      <trkpt lat="46.00645" lon="-1.34076">
        <ele>6.39</ele>
        <time>2017-05-30T09:20:16Z</time>
      </trkpt>
      <trkpt lat="46.00644" lon="-1.34077">
        <ele>6.87</ele>
        <time>2017-05-30T09:20:20Z</time>
      </trkpt>
      <trkpt lat="46.00638" lon="-1.34078">
        <ele>8.31</ele>
        <time>2017-05-30T09:20:28Z</time>
      </trkpt>
      <trkpt lat="46.00628" lon="-1.34081">
        <ele>7.35</ele>
        <time>2017-05-30T09:20:35Z</time>
      </trkpt>
      <trkpt lat="46.00625" lon="-1.34083">
        <ele>7.35</ele>
        <time>2017-05-30T09:20:50Z</time>
      </trkpt>
      <trkpt lat="46.00625" lon="-1.34083">
        <ele>6.87</ele>
        <time>2017-05-30T09:20:54Z</time>
      </trkpt>
      <trkpt lat="46.0062" lon="-1.34066">
        <ele>9.27</ele>
        <time>2017-05-30T09:21:09Z</time>
      </trkpt>
      <trkpt lat="46.00615" lon="-1.34053">
        <ele>7.83</ele>
        <time>2017-05-30T09:21:19Z</time>
      </trkpt>
      <trkpt lat="46.00593" lon="-1.34048">
        <ele>6.39</ele>
        <time>2017-05-30T09:21:33Z</time>
      </trkpt>
      <trkpt lat="46.00587" lon="-1.3405">
        <ele>5.91</ele>
        <time>2017-05-30T09:21:37Z</time>
      </trkpt>
      <trkpt lat="46.00564" lon="-1.34062">
        <ele>4.46</ele>
        <time>2017-05-30T09:21:52Z</time>
      </trkpt>
      <trkpt lat="46.00542" lon="-1.34076">
        <ele>4.94</ele>
        <time>2017-05-30T09:22:08Z</time>
      </trkpt>
      <trkpt lat="46.00541" lon="-1.34077">
        <ele>4.94</ele>
        <time>2017-05-30T09:22:09Z</time>
      </trkpt>
      <trkpt lat="46.00519" lon="-1.34092">
        <ele>4.46</ele>
        <time>2017-05-30T09:22:24Z</time>
      </trkpt>
      <trkpt lat="46.00509" lon="-1.34098">
        <ele>3.98</ele>
        <time>2017-05-30T09:22:31Z</time>
      </trkpt>
      <trkpt lat="46.00492" lon="-1.3411">
        <ele>4.46</ele>
        <time>2017-05-30T09:22:43Z</time>
      </trkpt>
      <trkpt lat="46.00487" lon="-1.34115">
        <ele>4.94</ele>
        <time>2017-05-30T09:22:47Z</time>
      </trkpt>
      <trkpt lat="46.0047" lon="-1.34142">
        <ele>5.42</ele>
        <time>2017-05-30T09:23:03Z</time>
      </trkpt>
      <trkpt lat="46.00454" lon="-1.34167">
        <ele>5.42</ele>
        <time>2017-05-30T09:23:18Z</time>
      </trkpt>
      <trkpt lat="46.00435" lon="-1.34186">
        <ele>3.98</ele>
        <time>2017-05-30T09:23:34Z</time>
      </trkpt>
      <trkpt lat="46.00413" lon="-1.34194">
        <ele>2.54</ele>
        <time>2017-05-30T09:23:49Z</time>
      </trkpt>
      <trkpt lat="46.00391" lon="-1.34206">
        <ele>2.54</ele>
        <time>2017-05-30T09:24:05Z</time>
      </trkpt>
      <trkpt lat="46.00383" lon="-1.34214">
        <ele>3.02</ele>
        <time>2017-05-30T09:24:12Z</time>
      </trkpt>
      <trkpt lat="46.00369" lon="-1.34232">
        <ele>5.42</ele>
        <time>2017-05-30T09:24:28Z</time>
      </trkpt>
      <trkpt lat="46.00367" lon="-1.34235">
        <ele>5.91</ele>
        <time>2017-05-30T09:24:44Z</time>
      </trkpt>
      <trkpt lat="46.00367" lon="-1.34236">
        <ele>5.42</ele>
        <time>2017-05-30T09:25:06Z</time>
      </trkpt>
      <trkpt lat="46.00364" lon="-1.34235">
        <ele>4.94</ele>
        <time>2017-05-30T09:25:10Z</time>
      </trkpt>
      <trkpt lat="46.00347" lon="-1.34213">
        <ele>4.46</ele>
        <time>2017-05-30T09:25:27Z</time>
      </trkpt>
      <trkpt lat="46.00334" lon="-1.34199">
        <ele>3.02</ele>
        <time>2017-05-30T09:25:38Z</time>
      </trkpt>
      <trkpt lat="46.00328" lon="-1.34191">
        <ele>2.06</ele>
        <time>2017-05-30T09:25:44Z</time>
      </trkpt>
      <trkpt lat="46.00312" lon="-1.34171">
        <ele>1.58</ele>
        <time>2017-05-30T09:26:02Z</time>
      </trkpt>
      <trkpt lat="46.00307" lon="-1.34168">
        <ele>0.62</ele>
        <time>2017-05-30T09:26:17Z</time>
      </trkpt>
      <trkpt lat="46.00306" lon="-1.34168">
        <ele>0.14</ele>
        <time>2017-05-30T09:26:37Z</time>
      </trkpt>
      <trkpt lat="46.00306" lon="-1.34168">
        <ele>0.14</ele>
        <time>2017-05-30T09:26:46Z</time>
      </trkpt>
      <trkpt lat="46.00302" lon="-1.34167">
        <ele>0.62</ele>
        <time>2017-05-30T09:26:50Z</time>
      </trkpt>
      <trkpt lat="46.00298" lon="-1.34168">
        <ele>0.62</ele>
        <time>2017-05-30T09:26:54Z</time>
      </trkpt>
      <trkpt lat="46.00293" lon="-1.34167">
        <ele>1.1</ele>
        <time>2017-05-30T09:27:00Z</time>
      </trkpt>
      <trkpt lat="46.00281" lon="-1.34157">
        <ele>1.1</ele>
        <time>2017-05-30T09:27:14Z</time>
      </trkpt>
      <trkpt lat="46.00281" lon="-1.34157">
        <ele>1.1</ele>
        <time>2017-05-30T09:27:32Z</time>
      </trkpt>
      <trkpt lat="46.0028" lon="-1.34158">
        <ele>1.1</ele>
        <time>2017-05-30T09:27:58Z</time>
      </trkpt>
      <trkpt lat="46.0028" lon="-1.34159">
        <ele>1.1</ele>
        <time>2017-05-30T09:28:12Z</time>
      </trkpt>
      <trkpt lat="46.00281" lon="-1.34159">
        <ele>1.1</ele>
        <time>2017-05-30T09:28:42Z</time>
      </trkpt>
      <trkpt lat="46.00281" lon="-1.3416">
        <ele>2.54</ele>
        <time>2017-05-30T09:29:12Z</time>
      </trkpt>
      <trkpt lat="46.00281" lon="-1.34159">
        <ele>2.06</ele>
        <time>2017-05-30T09:29:32Z</time>
      </trkpt>
      <trkpt lat="46.00297" lon="-1.34174">
        <ele>3.02</ele>
        <time>2017-05-30T09:29:48Z</time>
      </trkpt>
      <trkpt lat="46.00295" lon="-1.34184">
        <ele>3.5</ele>
        <time>2017-05-30T09:29:58Z</time>
      </trkpt>
      <trkpt lat="46.0028" lon="-1.34208">
        <ele>4.94</ele>
        <time>2017-05-30T09:30:16Z</time>
      </trkpt>
      <trkpt lat="46.00278" lon="-1.34211">
        <ele>4.94</ele>
        <time>2017-05-30T09:30:18Z</time>
      </trkpt>
      <trkpt lat="46.00274" lon="-1.34217">
        <ele>5.42</ele>
        <time>2017-05-30T09:30:23Z</time>
      </trkpt>
      <trkpt lat="46.00258" lon="-1.34207">
        <ele>4.46</ele>
        <time>2017-05-30T09:30:38Z</time>
      </trkpt>
      <trkpt lat="46.00256" lon="-1.34183">
        <ele>3.98</ele>
        <time>2017-05-30T09:30:53Z</time>
      </trkpt>
      <trkpt lat="46.00258" lon="-1.34176">
        <ele>3.5</ele>
        <time>2017-05-30T09:30:57Z</time>
      </trkpt>
      <trkpt lat="46.00258" lon="-1.34166">
        <ele>3.5</ele>
        <time>2017-05-30T09:31:02Z</time>
      </trkpt>
      <trkpt lat="46.00244" lon="-1.34136">
        <ele>3.02</ele>
        <time>2017-05-30T09:31:20Z</time>
      </trkpt>
      <trkpt lat="46.00228" lon="-1.3412">
        <ele>2.06</ele>
        <time>2017-05-30T09:31:33Z</time>
      </trkpt>
      <trkpt lat="46.00221" lon="-1.34114">
        <ele>1.58</ele>
        <time>2017-05-30T09:31:39Z</time>
      </trkpt>
      <trkpt lat="46.00212" lon="-1.34106">
        <ele>1.1</ele>
        <time>2017-05-30T09:31:46Z</time>
      </trkpt>
      <trkpt lat="46.00208" lon="-1.341">
        <ele>1.58</ele>
        <time>2017-05-30T09:31:50Z</time>
      </trkpt>
      <trkpt lat="46.00189" lon="-1.3408">
        <ele>1.1</ele>
        <time>2017-05-30T09:32:06Z</time>
      </trkpt>
      <trkpt lat="46.00164" lon="-1.34056">
        <ele>0.62</ele>
        <time>2017-05-30T09:32:25Z</time>
      </trkpt>
      <trkpt lat="46.00146" lon="-1.34038">
        <ele>1.1</ele>
        <time>2017-05-30T09:32:39Z</time>
      </trkpt>
      <trkpt lat="46.00116" lon="-1.34008">
        <ele>0.14</ele>
        <time>2017-05-30T09:33:02Z</time>
      </trkpt>
      <trkpt lat="46.00097" lon="-1.33989">
        <ele>-0.34</ele>
        <time>2017-05-30T09:33:19Z</time>
      </trkpt>
      <trkpt lat="46.00077" lon="-1.3397">
        <ele>-0.34</ele>
        <time>2017-05-30T09:33:34Z</time>
      </trkpt>
      <trkpt lat="46.00054" lon="-1.33947">
        <ele>-2.27</ele>
        <time>2017-05-30T09:33:51Z</time>
      </trkpt>
      <trkpt lat="46.00035" lon="-1.33929">
        <ele>-2.27</ele>
        <time>2017-05-30T09:34:07Z</time>
      </trkpt>
      <trkpt lat="46.00017" lon="-1.3391">
        <ele>-0.34</ele>
        <time>2017-05-30T09:34:23Z</time>
      </trkpt>
      <trkpt lat="45.99997" lon="-1.33891">
        <ele>-0.34</ele>
        <time>2017-05-30T09:34:39Z</time>
      </trkpt>
      <trkpt lat="45.99977" lon="-1.33871">
        <ele>-0.82</ele>
        <time>2017-05-30T09:34:54Z</time>
      </trkpt>
      <trkpt lat="45.99955" lon="-1.3385">
        <ele>-1.79</ele>
        <time>2017-05-30T09:35:10Z</time>
      </trkpt>
      <trkpt lat="45.99932" lon="-1.33826">
        <ele>-1.3</ele>
        <time>2017-05-30T09:35:29Z</time>
      </trkpt>
      <trkpt lat="45.99908" lon="-1.33803">
        <ele>-0.82</ele>
        <time>2017-05-30T09:35:48Z</time>
      </trkpt>
      <trkpt lat="45.99882" lon="-1.33778">
        <ele>-1.3</ele>
        <time>2017-05-30T09:36:08Z</time>
      </trkpt>
      <trkpt lat="45.99859" lon="-1.33756">
        <ele>-1.3</ele>
        <time>2017-05-30T09:36:26Z</time>
      </trkpt>
      <trkpt lat="45.99835" lon="-1.33731">
        <ele>-0.82</ele>
        <time>2017-05-30T09:36:45Z</time>
      </trkpt>
      <trkpt lat="45.9981" lon="-1.33707">
        <ele>-0.34</ele>
        <time>2017-05-30T09:37:04Z</time>
      </trkpt>
      <trkpt lat="45.99785" lon="-1.33682">
        <ele>0.14</ele>
        <time>2017-05-30T09:37:24Z</time>
      </trkpt>
      <trkpt lat="45.99761" lon="-1.33658">
        <ele>-0.34</ele>
        <time>2017-05-30T09:37:43Z</time>
      </trkpt>
      <trkpt lat="45.99741" lon="-1.33639">
        <ele>0.14</ele>
        <time>2017-05-30T09:37:59Z</time>
      </trkpt>
      <trkpt lat="45.99716" lon="-1.33615">
        <ele>1.1</ele>
        <time>2017-05-30T09:38:18Z</time>
      </trkpt>
      <trkpt lat="45.99694" lon="-1.33593">
        <ele>0.62</ele>
        <time>2017-05-30T09:38:36Z</time>
      </trkpt>
      <trkpt lat="45.99673" lon="-1.33571">
        <ele>0.62</ele>
        <time>2017-05-30T09:38:55Z</time>
      </trkpt>
      <trkpt lat="45.99669" lon="-1.33567">
        <ele>1.1</ele>
        <time>2017-05-30T09:39:00Z</time>
      </trkpt>
      <trkpt lat="45.99659" lon="-1.33557">
        <ele>0.62</ele>
        <time>2017-05-30T09:39:14Z</time>
      </trkpt>
      <trkpt lat="45.99653" lon="-1.33553">
        <ele>1.1</ele>
        <time>2017-05-30T09:39:29Z</time>
      </trkpt>
      <trkpt lat="45.99638" lon="-1.33544">
        <ele>1.58</ele>
        <time>2017-05-30T09:39:43Z</time>
      </trkpt>
      <trkpt lat="45.99628" lon="-1.33535">
        <ele>1.1</ele>
        <time>2017-05-30T09:39:56Z</time>
      </trkpt>
      <trkpt lat="45.99629" lon="-1.33526">
        <ele>0.62</ele>
        <time>2017-05-30T09:40:11Z</time>
      </trkpt>
      <trkpt lat="45.99628" lon="-1.33515">
        <ele>1.1</ele>
        <time>2017-05-30T09:40:21Z</time>
      </trkpt>
      <trkpt lat="45.99612" lon="-1.33499">
        <ele>0.62</ele>
        <time>2017-05-30T09:40:35Z</time>
      </trkpt>
      <trkpt lat="45.996" lon="-1.33498">
        <ele>1.58</ele>
        <time>2017-05-30T09:40:46Z</time>
      </trkpt>
      <trkpt lat="45.99593" lon="-1.33488">
        <ele>2.06</ele>
        <time>2017-05-30T09:40:59Z</time>
      </trkpt>
      <trkpt lat="45.99594" lon="-1.33488">
        <ele>1.1</ele>
        <time>2017-05-30T09:41:16Z</time>
      </trkpt>
      <trkpt lat="45.99595" lon="-1.33486">
        <ele>1.1</ele>
        <time>2017-05-30T09:41:24Z</time>
      </trkpt>
      <trkpt lat="45.9961" lon="-1.33461">
        <ele>3.5</ele>
        <time>2017-05-30T09:41:41Z</time>
      </trkpt>
      <trkpt lat="45.99622" lon="-1.33438">
        <ele>3.02</ele>
        <time>2017-05-30T09:41:55Z</time>
      </trkpt>
      <trkpt lat="45.99638" lon="-1.33405">
        <ele>3.5</ele>
        <time>2017-05-30T09:42:14Z</time>
      </trkpt>
      <trkpt lat="45.99655" lon="-1.3337">
        <ele>3.98</ele>
        <time>2017-05-30T09:42:33Z</time>
      </trkpt>
      <trkpt lat="45.9967" lon="-1.33339">
        <ele>4.46</ele>
        <time>2017-05-30T09:42:51Z</time>
      </trkpt>
      <trkpt lat="45.99687" lon="-1.33305">
        <ele>3.98</ele>
        <time>2017-05-30T09:43:10Z</time>
      </trkpt>
      <trkpt lat="45.99705" lon="-1.33271">
        <ele>3.02</ele>
        <time>2017-05-30T09:43:29Z</time>
      </trkpt>
      <trkpt lat="45.99722" lon="-1.33236">
        <ele>3.98</ele>
        <time>2017-05-30T09:43:49Z</time>
      </trkpt>
      <trkpt lat="45.99741" lon="-1.332">
        <ele>4.46</ele>
        <time>2017-05-30T09:44:09Z</time>
      </trkpt>
      <trkpt lat="45.99758" lon="-1.33165">
        <ele>2.54</ele>
        <time>2017-05-30T09:44:28Z</time>
      </trkpt>
      <trkpt lat="45.99775" lon="-1.33131">
        <ele>3.02</ele>
        <time>2017-05-30T09:44:47Z</time>
      </trkpt>
      <trkpt lat="45.99792" lon="-1.33096">
        <ele>3.5</ele>
        <time>2017-05-30T09:45:07Z</time>
      </trkpt>
      <trkpt lat="45.9981" lon="-1.3306">
        <ele>3.5</ele>
        <time>2017-05-30T09:45:27Z</time>
      </trkpt>
      <trkpt lat="45.99827" lon="-1.33026">
        <ele>4.46</ele>
        <time>2017-05-30T09:45:46Z</time>
      </trkpt>
      <trkpt lat="45.99843" lon="-1.32994">
        <ele>3.98</ele>
        <time>2017-05-30T09:46:04Z</time>
      </trkpt>
      <trkpt lat="45.9986" lon="-1.32957">
        <ele>3.02</ele>
        <time>2017-05-30T09:46:24Z</time>
      </trkpt>
      <trkpt lat="45.99875" lon="-1.32928">
        <ele>2.06</ele>
        <time>2017-05-30T09:46:41Z</time>
      </trkpt>
      <trkpt lat="45.9989" lon="-1.32899">
        <ele>2.06</ele>
        <time>2017-05-30T09:46:58Z</time>
      </trkpt>
      <trkpt lat="45.99906" lon="-1.32866">
        <ele>2.06</ele>
        <time>2017-05-30T09:47:16Z</time>
      </trkpt>
      <trkpt lat="45.99924" lon="-1.32831">
        <ele>1.58</ele>
        <time>2017-05-30T09:47:36Z</time>
      </trkpt>
      <trkpt lat="45.99942" lon="-1.32794">
        <ele>1.1</ele>
        <time>2017-05-30T09:47:56Z</time>
      </trkpt>
      <trkpt lat="45.99952" lon="-1.32775">
        <ele>1.1</ele>
        <time>2017-05-30T09:48:07Z</time>
      </trkpt>
      <trkpt lat="45.99969" lon="-1.32742">
        <ele>1.58</ele>
        <time>2017-05-30T09:48:26Z</time>
      </trkpt>
      <trkpt lat="45.99985" lon="-1.32708">
        <ele>3.02</ele>
        <time>2017-05-30T09:48:45Z</time>
      </trkpt>
      <trkpt lat="46" lon="-1.32681">
        <ele>2.54</ele>
        <time>2017-05-30T09:49:01Z</time>
      </trkpt>
      <trkpt lat="46.00018" lon="-1.32649">
        <ele>3.98</ele>
        <time>2017-05-30T09:49:19Z</time>
      </trkpt>
      <trkpt lat="46.00034" lon="-1.32621">
        <ele>3.02</ele>
        <time>2017-05-30T09:49:35Z</time>
      </trkpt>
      <trkpt lat="46.00052" lon="-1.32599">
        <ele>2.06</ele>
        <time>2017-05-30T09:49:51Z</time>
      </trkpt>
      <trkpt lat="46.00071" lon="-1.3258">
        <ele>2.54</ele>
        <time>2017-05-30T09:50:07Z</time>
      </trkpt>
      <trkpt lat="46.00093" lon="-1.32558">
        <ele>4.46</ele>
        <time>2017-05-30T09:50:25Z</time>
      </trkpt>
      <trkpt lat="46.00114" lon="-1.32537">
        <ele>3.98</ele>
        <time>2017-05-30T09:50:42Z</time>
      </trkpt>
      <trkpt lat="46.00137" lon="-1.32514">
        <ele>3.98</ele>
        <time>2017-05-30T09:51:00Z</time>
      </trkpt>
      <trkpt lat="46.00161" lon="-1.32494">
        <ele>4.94</ele>
        <time>2017-05-30T09:51:17Z</time>
      </trkpt>
      <trkpt lat="46.00177" lon="-1.32472">
        <ele>2.54</ele>
        <time>2017-05-30T09:51:33Z</time>
      </trkpt>
      <trkpt lat="46.00176" lon="-1.32472">
        <ele>1.1</ele>
        <time>2017-05-30T09:51:49Z</time>
      </trkpt>
      <trkpt lat="46.00175" lon="-1.32471">
        <ele>-0.34</ele>
        <time>2017-05-30T09:52:03Z</time>
      </trkpt>
      <trkpt lat="46.00174" lon="-1.3247">
        <ele>-0.82</ele>
        <time>2017-05-30T09:52:22Z</time>
      </trkpt>
      <trkpt lat="46.00174" lon="-1.3247">
        <ele>-0.82</ele>
        <time>2017-05-30T09:52:40Z</time>
      </trkpt>
      <trkpt lat="46.00174" lon="-1.3247">
        <ele>-0.82</ele>
        <time>2017-05-30T09:52:57Z</time>
      </trkpt>
      <trkpt lat="46.00174" lon="-1.32471">
        <ele>-0.82</ele>
        <time>2017-05-30T09:53:22Z</time>
      </trkpt>
      <trkpt lat="46.00174" lon="-1.32471">
        <ele>-0.34</ele>
        <time>2017-05-30T09:53:44Z</time>
      </trkpt>
    </trkseg>
  </trk>
</gpx>